Observation data for Reese Center on 08/14/2020      Previous  Date  Next       Current Mesonet Observations  Soil Data  Daily Summary Page  Observations in Plain Language
KREE 140500Z 21010KT 27/09 A2999 RMK A01 T02660090  RH  033%=      5-min Rain = 0
KREE 140501Z 21010KT 27/09 A2999 RMK A01 T02660090  RH  033%=      5-min Rain = 0
KREE 140502Z 20010KT 27/09 A2999 RMK A01 T02680090  RH  032%=      5-min Rain = 0
KREE 140503Z 21010KT 27/09 A2999 RMK A01 T02710090  RH  032%=      5-min Rain = 0
KREE 140504Z 23009KT 27/09 A2999 RMK A01 T02730090  RH  032%=      5-min Rain = 0
KREE 140505Z 22010KT 27/09 A2999 RMK A01 T02720090  RH  032%=      5-min Rain = 0
KREE 140506Z 21010KT 27/09 A2999 RMK A01 T02700090  RH  032%=      5-min Rain = 0
KREE 140507Z 22010KT 27/09 A2999 RMK A01 T02710090  RH  032%=      5-min Rain = 0
KREE 140508Z 22009KT 27/09 A2999 RMK A01 T02730090  RH  032%=      5-min Rain = 0
KREE 140509Z 22009KT 28/09 A2999 RMK A01 T02750090  RH  031%=      5-min Rain = 0
KREE 140510Z 22009KT 28/09 A2999 RMK A01 T02750090  RH  031%=      5-min Rain = 0
KREE 140511Z 22009KT 27/09 A2999 RMK A01 T02740091  RH  032%=      5-min Rain = 0
KREE 140512Z 21009KT 27/09 A2999 RMK A01 T02730091  RH  032%=      5-min Rain = 0
KREE 140513Z 22010KT 27/09 A2999 RMK A01 T02730090  RH  032%=      5-min Rain = 0
KREE 140514Z 22009KT 27/09 A2999 RMK A01 T02730090  RH  032%=      5-min Rain = 0
KREE 140515Z 22009KT 27/09 A2999 RMK A01 T02730090  RH  032%=      5-min Rain = 0
KREE 140516Z 22009KT 27/09 A2999 RMK A01 T02710090  RH  032%=      5-min Rain = 0
KREE 140517Z 23009KT 27/09 A2999 RMK A01 T02700090  RH  032%=      5-min Rain = 0
KREE 140518Z 23008KT 27/09 A2999 RMK A01 T02690089  RH  032%=      5-min Rain = 0
KREE 140519Z 23008KT 27/09 A2999 RMK A01 T02680089  RH  032%=      5-min Rain = 0
KREE 140520Z 23008KT 27/09 A2999 RMK A01 T02670089  RH  032%=      5-min Rain = 0
KREE 140521Z 23009KT 27/09 A2999 RMK A01 T02670088  RH  032%=      5-min Rain = 0
KREE 140522Z 23009KT 27/09 A2999 RMK A01 T02680088  RH  032%=      5-min Rain = 0
KREE 140523Z 23009KT 27/09 A2999 RMK A01 T02680087  RH  032%=      5-min Rain = 0
KREE 140524Z 22010KT 27/09 A2999 RMK A01 T02690087  RH  032%=      5-min Rain = 0
KREE 140525Z 22010KT 27/09 A2999 RMK A01 T02700087  RH  032%=      5-min Rain = 0
KREE 140526Z 22010KT 27/09 A2999 RMK A01 T02700087  RH  031%=      5-min Rain = 0
KREE 140527Z 22010KT 27/09 A2999 RMK A01 T02700087  RH  031%=      5-min Rain = 0
KREE 140528Z 23010KT 27/09 A2999 RMK A01 T02700087  RH  032%=      5-min Rain = 0
KREE 140529Z 23009KT 27/09 A2999 RMK A01 T02700087  RH  032%=      5-min Rain = 0
KREE 140530Z 23009KT 27/09 A2999 RMK A01 T02700087  RH  032%=      5-min Rain = 0
KREE 140531Z 23009KT 27/09 A2999 RMK A01 T02700087  RH  032%=      5-min Rain = 0
KREE 140532Z 23010KT 27/09 A2999 RMK A01 T02700087  RH  032%=      5-min Rain = 0
KREE 140533Z 23009KT 27/09 A2999 RMK A01 T02710087  RH  031%=      5-min Rain = 0
KREE 140534Z 23009KT 27/09 A2999 RMK A01 T02720087  RH  031%=      5-min Rain = 0
KREE 140535Z 23010KT 27/09 A2999 RMK A01 T02730088  RH  031%=      5-min Rain = 0
KREE 140536Z 23010KT 28/09 A2999 RMK A01 T02750088  RH  031%=      5-min Rain = 0
KREE 140537Z 23010KT 28/09 A2999 RMK A01 T02750088  RH  031%=      5-min Rain = 0
KREE 140538Z 23010KT 28/09 A2999 RMK A01 T02760088  RH  031%=      5-min Rain = 0
KREE 140539Z 23009KT 28/09 A2999 RMK A01 T02760088  RH  031%=      5-min Rain = 0
KREE 140540Z 22010KT 28/09 A2999 RMK A01 T02760089  RH  031%=      5-min Rain = 0
KREE 140541Z 22009KT 28/09 A2999 RMK A01 T02760089  RH  031%=      5-min Rain = 0
KREE 140542Z 22009KT 28/09 A2999 RMK A01 T02750089  RH  031%=      5-min Rain = 0
KREE 140543Z 22010KT 28/09 A2999 RMK A01 T02750090  RH  031%=      5-min Rain = 0
KREE 140544Z 21010KT 28/09 A2999 RMK A01 T02750090  RH  031%=      5-min Rain = 0
KREE 140545Z 21011KT 28/09 A2999 RMK A01 T02770090  RH  031%=      5-min Rain = 0
KREE 140546Z 21011KT 28/09 A2999 RMK A01 T02810090  RH  030%=      5-min Rain = 0
KREE 140547Z 21011KT 28/09 A2999 RMK A01 T02840090  RH  030%=      5-min Rain = 0
KREE 140548Z 21011KT 29/09 A2999 RMK A01 T02850090  RH  029%=      5-min Rain = 0
KREE 140549Z 21012KT 29/09 A2999 RMK A01 T02870090  RH  029%=      5-min Rain = 0
KREE 140550Z 21012KT 29/09 A2999 RMK A01 T02890090  RH  029%=      5-min Rain = 0
KREE 140551Z 21012KT 29/09 A2999 RMK A01 T02910090  RH  029%=      5-min Rain = 0
KREE 140552Z 21012G17KT 29/09 A2999 RMK A01 T02930091  RH  028%=      5-min Rain = 0
KREE 140553Z 21013KT 30/09 A2999 RMK A01 T02950091  RH  028%=      5-min Rain = 0
KREE 140554Z 21014KT 30/09 A2999 RMK A01 T02970091  RH  028%=      5-min Rain = 0
KREE 140555Z 21014KT 30/09 A2999 RMK A01 T02980091  RH  027%=      5-min Rain = 0
KREE 140556Z 21014KT 30/09 A2999 RMK A01 T02990090  RH  027%=      5-min Rain = 0
KREE 140557Z 21014KT 30/09 A2999 RMK A01 T02990091  RH  027%=      5-min Rain = 0
KREE 140558Z 21013KT 30/09 A2999 RMK A01 T02990091  RH  027%=      5-min Rain = 0
KREE 140559Z 21013KT 30/09 A2999 RMK A01 T02990091  RH  027%=      5-min Rain = 0
KREE 140600Z 21013G18KT 30/09 A2999 RMK A01 T02980090  RH  027%=      5-min Rain = 0
KREE 140601Z 21013KT 30/09 A2999 RMK A01 T02980091  RH  027%=      5-min Rain = 0
KREE 140602Z 21014KT 30/09 A2999 RMK A01 T02980090  RH  027%=      5-min Rain = 0
KREE 140603Z 21013KT 30/09 A2999 RMK A01 T02970090  RH  027%=      5-min Rain = 0
KREE 140604Z 21012KT 30/09 A2999 RMK A01 T02970090  RH  027%=      5-min Rain = 0
KREE 140605Z 21012KT 30/09 A2999 RMK A01 T02970090  RH  027%=      5-min Rain = 0
KREE 140606Z 22012KT 30/09 A2999 RMK A01 T02970090  RH  027%=      5-min Rain = 0
KREE 140607Z 22012KT 30/09 A2999 RMK A01 T02960090  RH  028%=      5-min Rain = 0
KREE 140608Z 22012KT 30/09 A2999 RMK A01 T02950090  RH  028%=      5-min Rain = 0
KREE 140609Z 22012KT 29/09 A2999 RMK A01 T02940090  RH  028%=      5-min Rain = 0
KREE 140610Z 22013KT 29/09 A2999 RMK A01 T02940090  RH  028%=      5-min Rain = 0
KREE 140611Z 22014KT 29/09 A2999 RMK A01 T02930091  RH  028%=      5-min Rain = 0
KREE 140612Z 22014KT 29/09 A2999 RMK A01 T02930091  RH  028%=      5-min Rain = 0
KREE 140613Z 22014KT 29/09 A2999 RMK A01 T02920091  RH  028%=      5-min Rain = 0
KREE 140614Z 22013KT 29/09 A2999 RMK A01 T02920091  RH  029%=      5-min Rain = 0
KREE 140615Z 22014KT 29/09 A2999 RMK A01 T02920092  RH  029%=      5-min Rain = 0
KREE 140616Z 22014KT 29/09 A2999 RMK A01 T02920091  RH  029%=      5-min Rain = 0
KREE 140617Z 21014KT 29/09 A2999 RMK A01 T02930091  RH  028%=      5-min Rain = 0
KREE 140618Z 21015KT 29/09 A2999 RMK A01 T02940091  RH  028%=      5-min Rain = 0
KREE 140619Z 21015KT 29/09 A2999 RMK A01 T02940091  RH  028%=      5-min Rain = 0
KREE 140620Z 21015KT 30/09 A2999 RMK A01 T02950091  RH  028%=      5-min Rain = 0
KREE 140621Z 21014KT 30/09 A2999 RMK A01 T02960091  RH  028%=      5-min Rain = 0
KREE 140622Z 21014G19KT 30/09 A2999 RMK A01 T02960091  RH  028%=      5-min Rain = 0
KREE 140623Z 21014KT 30/09 A2999 RMK A01 T02960091  RH  028%=      5-min Rain = 0
KREE 140624Z 21015KT 30/09 A2999 RMK A01 T02960091  RH  028%=      5-min Rain = 0
KREE 140625Z 21014KT 30/09 A2999 RMK A01 T02960091  RH  028%=      5-min Rain = 0
KREE 140626Z 21014KT 30/09 A2999 RMK A01 T02950091  RH  028%=      5-min Rain = 0
KREE 140627Z 21014KT 30/09 A2999 RMK A01 T02950091  RH  028%=      5-min Rain = 0
KREE 140628Z 21014KT 29/09 A2999 RMK A01 T02940091  RH  028%=      5-min Rain = 0
KREE 140629Z 21013KT 29/09 A2999 RMK A01 T02930091  RH  028%=      5-min Rain = 0
KREE 140630Z 21013KT 29/09 A2999 RMK A01 T02930092  RH  028%=      5-min Rain = 0
KREE 140631Z 21013KT 29/09 A2999 RMK A01 T02920092  RH  029%=      5-min Rain = 0
KREE 140632Z 21014KT 29/09 A2999 RMK A01 T02910092  RH  029%=      5-min Rain = 0
KREE 140633Z 22013KT 29/09 A2999 RMK A01 T02910092  RH  029%=      5-min Rain = 0
KREE 140634Z 22012KT 29/09 A2999 RMK A01 T02910092  RH  029%=      5-min Rain = 0
KREE 140635Z 22012KT 29/09 A2999 RMK A01 T02900092  RH  029%=      5-min Rain = 0
KREE 140636Z 22012KT 29/09 A2999 RMK A01 T02900092  RH  029%=      5-min Rain = 0
KREE 140637Z 22012KT 29/09 A2999 RMK A01 T02890092  RH  029%=      5-min Rain = 0
KREE 140638Z 22011KT 29/09 A2999 RMK A01 T02890092  RH  029%=      5-min Rain = 0
KREE 140639Z 22012KT 29/09 A2999 RMK A01 T02890092  RH  029%=      5-min Rain = 0
KREE 140640Z 22012KT 29/09 A2999 RMK A01 T02890092  RH  029%=      5-min Rain = 0
KREE 140641Z 21012KT 29/09 A2999 RMK A01 T02890092  RH  029%=      5-min Rain = 0
KREE 140642Z 22012KT 29/09 A2999 RMK A01 T02890092  RH  029%=      5-min Rain = 0
KREE 140643Z 22012KT 29/09 A2999 RMK A01 T02890092  RH  029%=      5-min Rain = 0
KREE 140644Z 22012KT 29/09 A2999 RMK A01 T02890092  RH  029%=      5-min Rain = 0
KREE 140645Z 22011KT 29/09 A2999 RMK A01 T02880092  RH  029%=      5-min Rain = 0
KREE 140646Z 22012KT 29/09 A2999 RMK A01 T02870092  RH  029%=      5-min Rain = 0
KREE 140647Z 22011KT 29/09 A2999 RMK A01 T02870092  RH  030%=      5-min Rain = 0
KREE 140648Z 22010KT 29/09 A30 RMK A01 T02860092  RH  030%=      5-min Rain = 0
KREE 140649Z 22010KT 29/09 A30 RMK A01 T02860092  RH  030%=      5-min Rain = 0
KREE 140650Z 22010KT 29/09 A30 RMK A01 T02850092  RH  030%=      5-min Rain = 0
KREE 140651Z 22010KT 28/09 A2999 RMK A01 T02840092  RH  030%=      5-min Rain = 0
KREE 140652Z 22010KT 28/09 A2999 RMK A01 T02840092  RH  030%=      5-min Rain = 0
KREE 140653Z 22010KT 28/09 A2999 RMK A01 T02840092  RH  030%=      5-min Rain = 0
KREE 140654Z 22010KT 28/09 A2999 RMK A01 T02840092  RH  030%=      5-min Rain = 0
KREE 140655Z 22010KT 28/09 A2999 RMK A01 T02830092  RH  030%=      5-min Rain = 0
KREE 140656Z 22010KT 28/09 A2999 RMK A01 T02830092  RH  030%=      5-min Rain = 0
KREE 140657Z 22010KT 28/09 A2999 RMK A01 T02820092  RH  030%=      5-min Rain = 0
KREE 140658Z 22010KT 28/09 A2999 RMK A01 T02820092  RH  030%=      5-min Rain = 0
KREE 140659Z 22010KT 28/09 A2999 RMK A01 T02820092  RH  030%=      5-min Rain = 0
KREE 140700Z 22011KT 28/09 A2999 RMK A01 T02810092  RH  031%=      5-min Rain = 0
KREE 140701Z 22011KT 28/09 A2999 RMK A01 T02800092  RH  031%=      5-min Rain = 0
KREE 140702Z 22011KT 28/09 A2999 RMK A01 T02800092  RH  031%=      5-min Rain = 0
KREE 140703Z 22012KT 28/09 A2999 RMK A01 T02800092  RH  031%=      5-min Rain = 0
KREE 140704Z 22012KT 28/09 A2999 RMK A01 T02810092  RH  031%=      5-min Rain = 0
KREE 140705Z 22012KT 28/09 A2999 RMK A01 T02810092  RH  031%=      5-min Rain = 0
KREE 140706Z 22011KT 28/09 A2999 RMK A01 T02820093  RH  031%=      5-min Rain = 0
KREE 140707Z 22011KT 28/09 A2999 RMK A01 T02820093  RH  031%=      5-min Rain = 0
KREE 140708Z 22011KT 28/09 A2999 RMK A01 T02810093  RH  031%=      5-min Rain = 0
KREE 140709Z 22011KT 28/09 A2999 RMK A01 T02810093  RH  031%=      5-min Rain = 0
KREE 140710Z 22011KT 28/09 A2999 RMK A01 T02810093  RH  031%=      5-min Rain = 0
KREE 140711Z 22011KT 28/09 A2999 RMK A01 T02800093  RH  031%=      5-min Rain = 0
KREE 140712Z 22011KT 28/09 A2999 RMK A01 T02800093  RH  031%=      5-min Rain = 0
KREE 140713Z 22011KT 28/09 A2999 RMK A01 T02800093  RH  031%=      5-min Rain = 0
KREE 140714Z 22012G17KT 28/09 A2999 RMK A01 T02790093  RH  031%=      5-min Rain = 0
KREE 140715Z 22012KT 28/09 A2999 RMK A01 T02790092  RH  031%=      5-min Rain = 0
KREE 140716Z 22013KT 28/09 A2999 RMK A01 T02790093  RH  031%=      5-min Rain = 0
KREE 140717Z 21013KT 28/09 A2999 RMK A01 T02800093  RH  031%=      5-min Rain = 0
KREE 140718Z 22012KT 28/09 A2999 RMK A01 T02800093  RH  031%=      5-min Rain = 0
KREE 140719Z 22013KT 28/09 A2999 RMK A01 T02800093  RH  031%=      5-min Rain = 0
KREE 140720Z 21012KT 28/09 A2999 RMK A01 T02800093  RH  031%=      5-min Rain = 0
KREE 140721Z 21012KT 28/09 A2999 RMK A01 T02790093  RH  031%=      5-min Rain = 0
KREE 140722Z 21013KT 28/09 A2999 RMK A01 T02790093  RH  031%=      5-min Rain = 0
KREE 140723Z 21012KT 28/09 A2999 RMK A01 T02790093  RH  031%=      5-min Rain = 0
KREE 140724Z 21011KT 28/09 A30 RMK A01 T02780093  RH  031%=      5-min Rain = 0
KREE 140725Z 21011KT 28/09 A30 RMK A01 T02770093  RH  032%=      5-min Rain = 0
KREE 140726Z 21011KT 28/09 A30 RMK A01 T02760093  RH  032%=      5-min Rain = 0
KREE 140727Z 21011KT 28/09 A30 RMK A01 T02750093  RH  032%=      5-min Rain = 0
KREE 140728Z 21011G17KT 28/09 A30 RMK A01 T02750093  RH  032%=      5-min Rain = 0
KREE 140729Z 21011G16KT 28/09 A30 RMK A01 T02760093  RH  032%=      5-min Rain = 0
KREE 140730Z 21012KT 28/09 A30 RMK A01 T02770094  RH  032%=      5-min Rain = 0
KREE 140731Z 21012KT 28/09 A30 RMK A01 T02770094  RH  032%=      5-min Rain = 0
KREE 140732Z 21012KT 28/09 A30 RMK A01 T02770094  RH  032%=      5-min Rain = 0
KREE 140733Z 21013KT 28/09 A30 RMK A01 T02780094  RH  032%=      5-min Rain = 0
KREE 140734Z 22012KT 28/09 A30 RMK A01 T02780094  RH  032%=      5-min Rain = 0
KREE 140735Z 22012KT 28/09 A30 RMK A01 T02780094  RH  032%=      5-min Rain = 0
KREE 140736Z 22012KT 28/09 A30 RMK A01 T02780094  RH  032%=      5-min Rain = 0
KREE 140737Z 22012KT 28/10 A30 RMK A01 T02790095  RH  032%=      5-min Rain = 0
KREE 140738Z 22012KT 28/10 A30 RMK A01 T02790095  RH  032%=      5-min Rain = 0
KREE 140739Z 22011KT 28/10 A30 RMK A01 T02790095  RH  032%=      5-min Rain = 0
KREE 140740Z 22011KT 28/10 A30 RMK A01 T02780095  RH  032%=      5-min Rain = 0
KREE 140741Z 22010KT 28/09 A30 RMK A01 T02780094  RH  032%=      5-min Rain = 0
KREE 140742Z 22011KT 28/09 A30 RMK A01 T02770094  RH  032%=      5-min Rain = 0
KREE 140743Z 22010KT 28/09 A30 RMK A01 T02770094  RH  032%=      5-min Rain = 0
KREE 140744Z 22009KT 28/09 A30 RMK A01 T02770094  RH  032%=      5-min Rain = 0
KREE 140745Z 22009KT 28/09 A30 RMK A01 T02760094  RH  032%=      5-min Rain = 0
KREE 140746Z 22009KT 28/09 A30 RMK A01 T02750094  RH  032%=      5-min Rain = 0
KREE 140747Z 22009KT 28/09 A30 RMK A01 T02750094  RH  032%=      5-min Rain = 0
KREE 140748Z 22009KT 28/09 A30 RMK A01 T02750094  RH  032%=      5-min Rain = 0
KREE 140749Z 22010KT 28/09 A30 RMK A01 T02750094  RH  032%=      5-min Rain = 0
KREE 140750Z 22010KT 27/09 A30 RMK A01 T02740094  RH  032%=      5-min Rain = 0
KREE 140751Z 22010KT 27/09 A30 RMK A01 T02740094  RH  032%=      5-min Rain = 0
KREE 140752Z 22010KT 27/09 A30 RMK A01 T02740094  RH  032%=      5-min Rain = 0
KREE 140753Z 22009KT 27/09 A30 RMK A01 T02740094  RH  032%=      5-min Rain = 0
KREE 140754Z 22010KT 27/10 A30 RMK A01 T02730095  RH  033%=      5-min Rain = 0
KREE 140755Z 22009KT 27/10 A30 RMK A01 T02730095  RH  033%=      5-min Rain = 0
KREE 140756Z 22009KT 27/10 A30 RMK A01 T02720095  RH  033%=      5-min Rain = 0
KREE 140757Z 22009KT 27/10 A30 RMK A01 T02720095  RH  033%=      5-min Rain = 0
KREE 140758Z 22009KT 27/10 A30 RMK A01 T02710095  RH  033%=      5-min Rain = 0
KREE 140759Z 22009KT 27/10 A30 RMK A01 T02710096  RH  033%=      5-min Rain = 0
KREE 140800Z 22011KT 27/10 A30 RMK A01 T02700096  RH  033%=      5-min Rain = 0
KREE 140801Z 22010KT 27/10 A30 RMK A01 T02710096  RH  033%=      5-min Rain = 0
KREE 140802Z 22011KT 27/10 A30 RMK A01 T02710097  RH  034%=      5-min Rain = 0
KREE 140803Z 22010KT 27/10 A30 RMK A01 T02700097  RH  034%=      5-min Rain = 0
KREE 140804Z 23011KT 27/10 A30 RMK A01 T02700098  RH  034%=      5-min Rain = 0
KREE 140805Z 23011KT 27/10 A30 RMK A01 T02700098  RH  034%=      5-min Rain = 0
KREE 140806Z 23012KT 27/10 A30 RMK A01 T02700098  RH  034%=      5-min Rain = 0
KREE 140807Z 23011KT 27/10 A30 RMK A01 T02700098  RH  034%=      5-min Rain = 0
KREE 140808Z 23012KT 27/10 A30 RMK A01 T02700098  RH  034%=      5-min Rain = 0
KREE 140809Z 23012KT 27/10 A30 RMK A01 T02700098  RH  034%=      5-min Rain = 0
KREE 140810Z 23012KT 27/10 A30 RMK A01 T02700098  RH  034%=      5-min Rain = 0
KREE 140811Z 23013KT 27/10 A30 RMK A01 T02710098  RH  034%=      5-min Rain = 0
KREE 140812Z 22012KT 27/10 A30 RMK A01 T02710099  RH  034%=      5-min Rain = 0
KREE 140813Z 22012KT 27/10 A30 RMK A01 T02710099  RH  034%=      5-min Rain = 0
KREE 140814Z 22012KT 27/10 A30 RMK A01 T02710099  RH  034%=      5-min Rain = 0
KREE 140815Z 23013KT 27/10 A30 RMK A01 T02700099  RH  034%=      5-min Rain = 0
KREE 140816Z 23012KT 27/10 A30 RMK A01 T02700099  RH  034%=      5-min Rain = 0
KREE 140817Z 22012KT 27/10 A30 RMK A01 T02700099  RH  034%=      5-min Rain = 0
KREE 140818Z 22011KT 27/10 A30 RMK A01 T02700099  RH  034%=      5-min Rain = 0
KREE 140819Z 22011KT 27/10 A30 RMK A01 T02700099  RH  034%=      5-min Rain = 0
KREE 140820Z 22012KT 27/10 A30 RMK A01 T02700099  RH  034%=      5-min Rain = 0
KREE 140821Z 22011KT 27/10 A30 RMK A01 T02700099  RH  034%=      5-min Rain = 0
KREE 140822Z 22011KT 27/10 A30 RMK A01 T02700099  RH  034%=      5-min Rain = 0
KREE 140823Z 22012KT 27/10 A30 RMK A01 T02700099  RH  034%=      5-min Rain = 0
KREE 140824Z 22012KT 27/10 A30 RMK A01 T02710099  RH  034%=      5-min Rain = 0
KREE 140825Z 22012KT 27/10 A30 RMK A01 T02710099  RH  034%=      5-min Rain = 0
KREE 140826Z 22012KT 27/10 A30 RMK A01 T02710099  RH  034%=      5-min Rain = 0
KREE 140827Z 22011KT 27/10 A30 RMK A01 T02720099  RH  034%=      5-min Rain = 0
KREE 140828Z 22013KT 27/10 A30 RMK A01 T02720099  RH  034%=      5-min Rain = 0
KREE 140829Z 22012KT 27/10 A30 RMK A01 T02720099  RH  034%=      5-min Rain = 0
KREE 140830Z 22012KT 27/10 A30 RMK A01 T02730099  RH  034%=      5-min Rain = 0
KREE 140831Z 22011KT 27/10 A30 RMK A01 T02730099  RH  034%=      5-min Rain = 0
KREE 140832Z 22011KT 27/10 A30 RMK A01 T02730099  RH  034%=      5-min Rain = 0
KREE 140833Z 22012KT 27/10 A30 RMK A01 T02720099  RH  034%=      5-min Rain = 0
KREE 140834Z 22011KT 27/10 A30 RMK A01 T02720099  RH  034%=      5-min Rain = 0
KREE 140835Z 22012KT 27/10 A30 RMK A01 T02720099  RH  034%=      5-min Rain = 0
KREE 140836Z 22011G16KT 27/10 A30 RMK A01 T02720099  RH  034%=      5-min Rain = 0
KREE 140837Z 22012KT 27/10 A30 RMK A01 T02720099  RH  034%=      5-min Rain = 0
KREE 140838Z 22011KT 27/10 A30 RMK A01 T02730099  RH  034%=      5-min Rain = 0
KREE 140839Z 22012KT 27/10 A30 RMK A01 T02730100  RH  034%=      5-min Rain = 0
KREE 140840Z 22013KT 27/10 A30 RMK A01 T02730099  RH  034%=      5-min Rain = 0
KREE 140841Z 22012KT 27/10 A30 RMK A01 T02730099  RH  034%=      5-min Rain = 0
KREE 140842Z 22012KT 27/10 A30 RMK A01 T02740099  RH  034%=      5-min Rain = 0
KREE 140843Z 22011KT 27/10 A30 RMK A01 T02740100  RH  034%=      5-min Rain = 0
KREE 140844Z 22011KT 27/10 A30 RMK A01 T02730100  RH  034%=      5-min Rain = 0
KREE 140845Z 22011KT 27/10 A30 RMK A01 T02730100  RH  034%=      5-min Rain = 0
KREE 140846Z 22011KT 27/10 A30 RMK A01 T02720100  RH  034%=      5-min Rain = 0
KREE 140847Z 22011KT 27/10 A30 RMK A01 T02720100  RH  034%=      5-min Rain = 0
KREE 140848Z 22011KT 27/10 A30 RMK A01 T02720100  RH  034%=      5-min Rain = 0
KREE 140849Z 22011KT 27/10 A30 RMK A01 T02710100  RH  034%=      5-min Rain = 0
KREE 140850Z 22010KT 27/10 A30 RMK A01 T02710100  RH  034%=      5-min Rain = 0
KREE 140851Z 23010KT 27/10 A30 RMK A01 T02710100  RH  034%=      5-min Rain = 0
KREE 140852Z 23010KT 27/10 A30 RMK A01 T02710100  RH  034%=      5-min Rain = 0
KREE 140853Z 23010KT 27/10 A30 RMK A01 T02700100  RH  034%=      5-min Rain = 0
KREE 140854Z 23009KT 27/10 A30 RMK A01 T02700100  RH  034%=      5-min Rain = 0
KREE 140855Z 23009KT 27/10 A3001 RMK A01 T02700100  RH  034%=      5-min Rain = 0
KREE 140856Z 23011KT 27/10 A3001 RMK A01 T02700100  RH  034%=      5-min Rain = 0
KREE 140857Z 23009KT 27/10 A3001 RMK A01 T02700101  RH  035%=      5-min Rain = 0
KREE 140858Z 24010KT 27/10 A3001 RMK A01 T02700101  RH  035%=      5-min Rain = 0
KREE 140859Z 24009KT 27/10 A3001 RMK A01 T02690101  RH  035%=      5-min Rain = 0
KREE 140900Z 23011KT 27/10 A3001 RMK A01 T02680101  RH  035%=      5-min Rain = 0
KREE 140901Z 24011KT 27/10 A3001 RMK A01 T02680101  RH  035%=      5-min Rain = 0
KREE 140902Z 24010KT 27/10 A3001 RMK A01 T02680101  RH  035%=      5-min Rain = 0
KREE 140903Z 24009KT 27/10 A3001 RMK A01 T02670101  RH  035%=      5-min Rain = 0
KREE 140904Z 24009KT 27/10 A3001 RMK A01 T02660101  RH  035%=      5-min Rain = 0
KREE 140905Z 24009KT 27/10 A3001 RMK A01 T02660101  RH  036%=      5-min Rain = 0
KREE 140906Z 24010KT 27/10 A3001 RMK A01 T02650101  RH  036%=      5-min Rain = 0
KREE 140907Z 24009KT 27/10 A3001 RMK A01 T02650101  RH  036%=      5-min Rain = 0
KREE 140908Z 24010KT 27/10 A3001 RMK A01 T02650101  RH  036%=      5-min Rain = 0
KREE 140909Z 24009KT 26/10 A3001 RMK A01 T02640101  RH  036%=      5-min Rain = 0
KREE 140910Z 24009KT 27/10 A3001 RMK A01 T02650102  RH  036%=      5-min Rain = 0
KREE 140911Z 24009KT 26/10 A3001 RMK A01 T02640102  RH  036%=      5-min Rain = 0
KREE 140912Z 24011KT 26/10 A3001 RMK A01 T02640102  RH  036%=      5-min Rain = 0
KREE 140913Z 24011KT 26/10 A3001 RMK A01 T02640102  RH  036%=      5-min Rain = 0
KREE 140914Z 24011KT 26/10 A3001 RMK A01 T02640102  RH  036%=      5-min Rain = 0
KREE 140915Z 24010KT 26/10 A3001 RMK A01 T02640103  RH  036%=      5-min Rain = 0
KREE 140916Z 24010KT 27/10 A3001 RMK A01 T02650103  RH  036%=      5-min Rain = 0
KREE 140917Z 24011KT 27/10 A3001 RMK A01 T02650103  RH  036%=      5-min Rain = 0
KREE 140918Z 24011KT 27/10 A3001 RMK A01 T02650103  RH  036%=      5-min Rain = 0
KREE 140919Z 24011KT 27/10 A30 RMK A01 T02650103  RH  036%=      5-min Rain = 0
KREE 140920Z 24011KT 27/10 A30 RMK A01 T02650104  RH  036%=      5-min Rain = 0
KREE 140921Z 24011KT 27/10 A30 RMK A01 T02650104  RH  036%=      5-min Rain = 0
KREE 140922Z 24011KT 27/10 A30 RMK A01 T02660104  RH  036%=      5-min Rain = 0
KREE 140923Z 24011KT 27/10 A30 RMK A01 T02660104  RH  036%=      5-min Rain = 0
KREE 140924Z 24012KT 27/10 A30 RMK A01 T02660104  RH  036%=      5-min Rain = 0
KREE 140925Z 24012KT 27/10 A30 RMK A01 T02670104  RH  036%=      5-min Rain = 0
KREE 140926Z 24011KT 27/11 A30 RMK A01 T02680105  RH  036%=      5-min Rain = 0
KREE 140927Z 24012KT 27/11 A30 RMK A01 T02680105  RH  036%=      5-min Rain = 0
KREE 140928Z 24010KT 27/11 A3001 RMK A01 T02680105  RH  036%=      5-min Rain = 0
KREE 140929Z 25011KT 27/11 A3001 RMK A01 T02670105  RH  036%=      5-min Rain = 0
KREE 140930Z 25011KT 27/11 A3001 RMK A01 T02670105  RH  036%=      5-min Rain = 0
KREE 140931Z 25011KT 27/11 A3001 RMK A01 T02670105  RH  036%=      5-min Rain = 0
KREE 140932Z 25010KT 27/11 A3001 RMK A01 T02670105  RH  036%=      5-min Rain = 0
KREE 140933Z 25010KT 27/11 A3001 RMK A01 T02680105  RH  036%=      5-min Rain = 0
KREE 140934Z 25011KT 27/11 A30 RMK A01 T02680105  RH  036%=      5-min Rain = 0
KREE 140935Z 25010KT 27/11 A30 RMK A01 T02680105  RH  036%=      5-min Rain = 0
KREE 140936Z 25011KT 27/11 A30 RMK A01 T02680105  RH  036%=      5-min Rain = 0
KREE 140937Z 25011KT 27/11 A30 RMK A01 T02680105  RH  036%=      5-min Rain = 0
KREE 140938Z 25011KT 27/11 A30 RMK A01 T02680105  RH  036%=      5-min Rain = 0
KREE 140939Z 25011KT 27/11 A30 RMK A01 T02680105  RH  036%=      5-min Rain = 0
KREE 140940Z 25012KT 27/11 A30 RMK A01 T02680105  RH  036%=      5-min Rain = 0
KREE 140941Z 25012KT 27/11 A30 RMK A01 T02690105  RH  036%=      5-min Rain = 0
KREE 140942Z 25010KT 27/11 A30 RMK A01 T02700106  RH  036%=      5-min Rain = 0
KREE 140943Z 24010KT 27/11 A30 RMK A01 T02690106  RH  036%=      5-min Rain = 0
KREE 140944Z 24010KT 27/11 A30 RMK A01 T02690106  RH  036%=      5-min Rain = 0
KREE 140945Z 24010KT 27/11 A30 RMK A01 T02690106  RH  036%=      5-min Rain = 0
KREE 140946Z 24010KT 27/11 A30 RMK A01 T02690106  RH  036%=      5-min Rain = 0
KREE 140947Z 24011KT 27/11 A30 RMK A01 T02680106  RH  036%=      5-min Rain = 0
KREE 140948Z 24009KT 27/11 A30 RMK A01 T02680106  RH  036%=      5-min Rain = 0
KREE 140949Z 24009KT 27/11 A30 RMK A01 T02670106  RH  036%=      5-min Rain = 0
KREE 140950Z 24009KT 27/11 A30 RMK A01 T02670106  RH  036%=      5-min Rain = 0
KREE 140951Z 24008KT 27/11 A30 RMK A01 T02660106  RH  037%=      5-min Rain = 0
KREE 140952Z 24010KT 27/11 A30 RMK A01 T02660106  RH  037%=      5-min Rain = 0
KREE 140953Z 24009KT 27/11 A30 RMK A01 T02660106  RH  037%=      5-min Rain = 0
KREE 140954Z 24009KT 27/11 A30 RMK A01 T02660106  RH  037%=      5-min Rain = 0
KREE 140955Z 24009KT 27/11 A30 RMK A01 T02660106  RH  037%=      5-min Rain = 0
KREE 140956Z 24009KT 27/11 A30 RMK A01 T02660106  RH  037%=      5-min Rain = 0
KREE 140957Z 24010KT 27/11 A30 RMK A01 T02650106  RH  037%=      5-min Rain = 0
KREE 140958Z 24010KT 27/11 A30 RMK A01 T02650107  RH  037%=      5-min Rain = 0
KREE 140959Z 24009KT 27/11 A30 RMK A01 T02650107  RH  037%=      5-min Rain = 0
KREE 141000Z 24010KT 27/11 A30 RMK A01 T02650107  RH  037%=      5-min Rain = 0
KREE 141001Z 24010KT 27/11 A30 RMK A01 T02650107  RH  037%=      5-min Rain = 0
KREE 141002Z 23010KT 27/11 A30 RMK A01 T02650107  RH  037%=      5-min Rain = 0
KREE 141003Z 23009KT 27/11 A30 RMK A01 T02650107  RH  037%=      5-min Rain = 0
KREE 141004Z 23009KT 27/11 A30 RMK A01 T02650107  RH  037%=      5-min Rain = 0
KREE 141005Z 23010KT 27/11 A30 RMK A01 T02650108  RH  037%=      5-min Rain = 0
KREE 141006Z 24008KT 27/11 A30 RMK A01 T02650108  RH  037%=      5-min Rain = 0
KREE 141007Z 23009KT 27/11 A30 RMK A01 T02650108  RH  037%=      5-min Rain = 0
KREE 141008Z 24008KT 27/11 A3001 RMK A01 T02650108  RH  037%=      5-min Rain = 0
KREE 141009Z 24009KT 27/11 A3001 RMK A01 T02650108  RH  037%=      5-min Rain = 0
KREE 141010Z 24009KT 27/11 A3001 RMK A01 T02650109  RH  037%=      5-min Rain = 0
KREE 141011Z 23010KT 27/11 A3001 RMK A01 T02650108  RH  037%=      5-min Rain = 0
KREE 141012Z 23009KT 27/11 A3001 RMK A01 T02650108  RH  037%=      5-min Rain = 0
KREE 141013Z 23008KT 27/11 A3001 RMK A01 T02660109  RH  037%=      5-min Rain = 0
KREE 141014Z 23008KT 27/11 A3001 RMK A01 T02660109  RH  037%=      5-min Rain = 0
KREE 141015Z 23009KT 27/11 A3001 RMK A01 T02660109  RH  037%=      5-min Rain = 0
KREE 141016Z 23009KT 27/11 A3001 RMK A01 T02650109  RH  038%=      5-min Rain = 0
KREE 141017Z 23009KT 27/11 A3001 RMK A01 T02650109  RH  038%=      5-min Rain = 0
KREE 141018Z 23008KT 27/11 A3001 RMK A01 T02650109  RH  038%=      5-min Rain = 0
KREE 141019Z 23008KT 26/11 A3001 RMK A01 T02640109  RH  038%=      5-min Rain = 0
KREE 141020Z 23008KT 26/11 A3001 RMK A01 T02640109  RH  038%=      5-min Rain = 0
KREE 141021Z 23008KT 26/11 A3001 RMK A01 T02640109  RH  038%=      5-min Rain = 0
KREE 141022Z 23007KT 26/11 A30 RMK A01 T02630109  RH  038%=      5-min Rain = 0
KREE 141023Z 23007KT 26/11 A30 RMK A01 T02630109  RH  038%=      5-min Rain = 0
KREE 141024Z 23008KT 26/11 A3001 RMK A01 T02620109  RH  038%=      5-min Rain = 0
KREE 141025Z 23008KT 26/11 A3001 RMK A01 T02620109  RH  038%=      5-min Rain = 0
KREE 141026Z 23008KT 26/11 A3001 RMK A01 T02620109  RH  038%=      5-min Rain = 0
KREE 141027Z 23008KT 26/11 A3001 RMK A01 T02630109  RH  038%=      5-min Rain = 0
KREE 141028Z 23008KT 26/11 A3001 RMK A01 T02630109  RH  038%=      5-min Rain = 0
KREE 141029Z 23008KT 26/11 A3001 RMK A01 T02640109  RH  038%=      5-min Rain = 0
KREE 141030Z 23008KT 26/11 A3001 RMK A01 T02640109  RH  038%=      5-min Rain = 0
KREE 141031Z 23008KT 26/11 A3001 RMK A01 T02640110  RH  038%=      5-min Rain = 0
KREE 141032Z 23008KT 26/11 A3001 RMK A01 T02640110  RH  038%=      5-min Rain = 0
KREE 141033Z 23007KT 26/11 A3001 RMK A01 T02640110  RH  038%=      5-min Rain = 0
KREE 141034Z 23007KT 26/11 A3001 RMK A01 T02640110  RH  038%=      5-min Rain = 0
KREE 141035Z 24006KT 26/11 A3001 RMK A01 T02640110  RH  038%=      5-min Rain = 0
KREE 141036Z 24007KT 26/11 A3001 RMK A01 T02630110  RH  038%=      5-min Rain = 0
KREE 141037Z 25007KT 26/11 A3001 RMK A01 T02620110  RH  038%=      5-min Rain = 0
KREE 141038Z 24007KT 26/11 A3001 RMK A01 T02620110  RH  039%=      5-min Rain = 0
KREE 141039Z 24007KT 26/11 A3001 RMK A01 T02610110  RH  039%=      5-min Rain = 0
KREE 141040Z 24007KT 26/11 A3001 RMK A01 T02610110  RH  039%=      5-min Rain = 0
KREE 141041Z 23007KT 26/11 A3001 RMK A01 T02610110  RH  039%=      5-min Rain = 0
KREE 141042Z 23007KT 26/11 A3001 RMK A01 T02610110  RH  039%=      5-min Rain = 0
KREE 141043Z 23007KT 26/11 A3001 RMK A01 T02610110  RH  039%=      5-min Rain = 0
KREE 141044Z 24007KT 26/11 A3001 RMK A01 T02600110  RH  039%=      5-min Rain = 0
KREE 141045Z 23006KT 26/11 A3001 RMK A01 T02600111  RH  039%=      5-min Rain = 0
KREE 141046Z 23006KT 26/11 A3001 RMK A01 T02600111  RH  039%=      5-min Rain = 0
KREE 141047Z 23007KT 26/11 A3001 RMK A01 T02600111  RH  039%=      5-min Rain = 0
KREE 141048Z 23007KT 26/11 A3001 RMK A01 T02600111  RH  039%=      5-min Rain = 0
KREE 141049Z 23006KT 26/11 A3001 RMK A01 T02600111  RH  039%=      5-min Rain = 0
KREE 141050Z 23006KT 26/11 A3001 RMK A01 T02600111  RH  039%=      5-min Rain = 0
KREE 141051Z 23007KT 26/11 A3001 RMK A01 T02590111  RH  039%=      5-min Rain = 0
KREE 141052Z 23007KT 26/11 A3001 RMK A01 T02590111  RH  040%=      5-min Rain = 0
KREE 141053Z 23007KT 26/11 A3001 RMK A01 T02590111  RH  040%=      5-min Rain = 0
KREE 141054Z 23007KT 26/11 A3001 RMK A01 T02590111  RH  040%=      5-min Rain = 0
KREE 141055Z 23007KT 26/11 A3001 RMK A01 T02590111  RH  040%=      5-min Rain = 0
KREE 141056Z 24007KT 26/11 A3001 RMK A01 T02590111  RH  040%=      5-min Rain = 0
KREE 141057Z 24006KT 26/11 A3001 RMK A01 T02580112  RH  040%=      5-min Rain = 0
KREE 141058Z 24006KT 26/11 A3001 RMK A01 T02580112  RH  040%=      5-min Rain = 0
KREE 141059Z 24006KT 26/11 A3001 RMK A01 T02570112  RH  040%=      5-min Rain = 0
KREE 141100Z 24006KT 26/11 A3001 RMK A01 T02570112  RH  040%=      5-min Rain = 0
KREE 141101Z 23006KT 26/11 A3001 RMK A01 T02570112  RH  040%=      5-min Rain = 0
KREE 141102Z 23006KT 26/11 A3001 RMK A01 T02570112  RH  040%=      5-min Rain = 0
KREE 141103Z 23006KT 26/11 A3001 RMK A01 T02570112  RH  040%=      5-min Rain = 0
KREE 141104Z 23006KT 26/11 A3001 RMK A01 T02560112  RH  040%=      5-min Rain = 0
KREE 141105Z 23006KT 26/11 A3001 RMK A01 T02560112  RH  040%=      5-min Rain = 0
KREE 141106Z 23006KT 26/11 A3001 RMK A01 T02560112  RH  040%=      5-min Rain = 0
KREE 141107Z 23006KT 26/11 A3001 RMK A01 T02550112  RH  041%=      5-min Rain = 0
KREE 141108Z 23006KT 26/11 A3001 RMK A01 T02550112  RH  041%=      5-min Rain = 0
KREE 141109Z 23006KT 25/11 A3001 RMK A01 T02540112  RH  041%=      5-min Rain = 0
KREE 141110Z 23006KT 25/11 A3001 RMK A01 T02540112  RH  041%=      5-min Rain = 0
KREE 141111Z 23006KT 25/11 A3001 RMK A01 T02530112  RH  041%=      5-min Rain = 0
KREE 141112Z 23006KT 25/11 A3001 RMK A01 T02520112  RH  041%=      5-min Rain = 0
KREE 141113Z 23006KT 25/11 A3001 RMK A01 T02520112  RH  042%=      5-min Rain = 0
KREE 141114Z 23006KT 25/11 A3001 RMK A01 T02520112  RH  042%=      5-min Rain = 0
KREE 141115Z 23006KT 25/11 A3001 RMK A01 T02510112  RH  042%=      5-min Rain = 0
KREE 141116Z 23006KT 25/11 A3001 RMK A01 T02510112  RH  042%=      5-min Rain = 0
KREE 141117Z 22007KT 25/11 A3001 RMK A01 T02500112  RH  042%=      5-min Rain = 0
KREE 141118Z 22007KT 25/11 A3001 RMK A01 T02500112  RH  042%=      5-min Rain = 0
KREE 141119Z 23006KT 25/11 A3001 RMK A01 T02490112  RH  042%=      5-min Rain = 0
KREE 141120Z 23007KT 25/11 A3001 RMK A01 T02480112  RH  043%=      5-min Rain = 0
KREE 141121Z 23007KT 25/11 A3001 RMK A01 T02480113  RH  043%=      5-min Rain = 0
KREE 141122Z 23007KT 25/11 A3001 RMK A01 T02480113  RH  043%=      5-min Rain = 0
KREE 141123Z 23006KT 25/11 A3001 RMK A01 T02490113  RH  042%=      5-min Rain = 0
KREE 141124Z 24006KT 25/11 A3001 RMK A01 T02490113  RH  042%=      5-min Rain = 0
KREE 141125Z 23007KT 25/11 A3001 RMK A01 T02490113  RH  042%=      5-min Rain = 0
KREE 141126Z 23006KT 25/11 A3001 RMK A01 T02490113  RH  043%=      5-min Rain = 0
KREE 141127Z 23006KT 25/11 A3001 RMK A01 T02480113  RH  043%=      5-min Rain = 0
KREE 141128Z 23006KT 25/11 A3001 RMK A01 T02480113  RH  043%=      5-min Rain = 0
KREE 141129Z 22006KT 25/11 A3001 RMK A01 T02480113  RH  043%=      5-min Rain = 0
KREE 141130Z 23006KT 25/11 A3001 RMK A01 T02470113  RH  043%=      5-min Rain = 0
KREE 141131Z 23007KT 25/11 A3001 RMK A01 T02470113  RH  043%=      5-min Rain = 0
KREE 141132Z 23006KT 25/11 A3001 RMK A01 T02460113  RH  043%=      5-min Rain = 0
KREE 141133Z 22006KT 25/11 A3001 RMK A01 T02450113  RH  043%=      5-min Rain = 0
KREE 141134Z 22006KT 25/11 A3001 RMK A01 T02450113  RH  044%=      5-min Rain = 0
KREE 141135Z 22006KT 24/11 A3001 RMK A01 T02440113  RH  044%=      5-min Rain = 0
KREE 141136Z 22006KT 24/11 A3001 RMK A01 T02430113  RH  044%=      5-min Rain = 0
KREE 141137Z 22006KT 24/11 A3001 RMK A01 T02420113  RH  044%=      5-min Rain = 0
KREE 141138Z 22006KT 24/11 A3001 RMK A01 T02420113  RH  044%=      5-min Rain = 0
KREE 141139Z 22006KT 24/11 A3001 RMK A01 T02420113  RH  044%=      5-min Rain = 0
KREE 141140Z 22006KT 24/11 A3002 RMK A01 T02420113  RH  044%=      5-min Rain = 0
KREE 141141Z 22006KT 24/11 A3002 RMK A01 T02420113  RH  044%=      5-min Rain = 0
KREE 141142Z 22006KT 24/11 A3002 RMK A01 T02420113  RH  044%=      5-min Rain = 0
KREE 141143Z 22006KT 24/11 A3002 RMK A01 T02410113  RH  045%=      5-min Rain = 0
KREE 141144Z 22006KT 24/11 A3002 RMK A01 T02410113  RH  045%=      5-min Rain = 0
KREE 141145Z 22006KT 24/11 A3002 RMK A01 T02410113  RH  045%=      5-min Rain = 0
KREE 141146Z 22006KT 24/11 A3002 RMK A01 T02400113  RH  045%=      5-min Rain = 0
KREE 141147Z 22006KT 24/11 A3002 RMK A01 T02400113  RH  045%=      5-min Rain = 0
KREE 141148Z 22006KT 24/11 A3002 RMK A01 T02400113  RH  045%=      5-min Rain = 0
KREE 141149Z 22007KT 24/11 A3002 RMK A01 T02400113  RH  045%=      5-min Rain = 0
KREE 141150Z 22007KT 24/11 A3002 RMK A01 T02390113  RH  045%=      5-min Rain = 0
KREE 141151Z 21007KT 24/11 A3002 RMK A01 T02390113  RH  045%=      5-min Rain = 0
KREE 141152Z 21007KT 24/11 A3002 RMK A01 T02390113  RH  045%=      5-min Rain = 0
KREE 141153Z 21007KT 24/11 A3002 RMK A01 T02390113  RH  045%=      5-min Rain = 0
KREE 141154Z 21007KT 24/11 A3002 RMK A01 T02390113  RH  045%=      5-min Rain = 0
KREE 141155Z 22007KT 24/11 A3002 RMK A01 T02390113  RH  045%=      5-min Rain = 0
KREE 141156Z 22007KT 24/11 A3002 RMK A01 T02400113  RH  045%=      5-min Rain = 0
KREE 141157Z 21006KT 24/11 A3002 RMK A01 T02410113  RH  045%=      5-min Rain = 0
KREE 141158Z 21006KT 24/11 A3002 RMK A01 T02410113  RH  045%=      5-min Rain = 0
KREE 141159Z 21007KT 24/11 A3002 RMK A01 T02420113  RH  044%=      5-min Rain = 0
KREE 141200Z 22007KT 24/11 A3002 RMK A01 T02420113  RH  044%=      5-min Rain = 0
KREE 141201Z 22007KT 24/11 A3002 RMK A01 T02430113  RH  044%=      5-min Rain = 0
KREE 141202Z 22007KT 24/11 A3002 RMK A01 T02440113  RH  044%=      5-min Rain = 0
KREE 141203Z 22007KT 24/11 A3002 RMK A01 T02440113  RH  044%=      5-min Rain = 0
KREE 141204Z 22008KT 24/11 A3002 RMK A01 T02440113  RH  044%=      5-min Rain = 0
KREE 141205Z 22008KT 24/11 A3002 RMK A01 T02440113  RH  044%=      5-min Rain = 0
KREE 141206Z 22008KT 24/11 A3002 RMK A01 T02440113  RH  044%=      5-min Rain = 0
KREE 141207Z 22008KT 24/11 A3002 RMK A01 T02440113  RH  044%=      5-min Rain = 0
KREE 141208Z 21008KT 24/11 A3002 RMK A01 T02440113  RH  044%=      5-min Rain = 0
KREE 141209Z 21008KT 24/11 A3002 RMK A01 T02440114  RH  044%=      5-min Rain = 0
KREE 141210Z 21008KT 24/11 A3002 RMK A01 T02430114  RH  044%=      5-min Rain = 0
KREE 141211Z 21008KT 24/11 A3002 RMK A01 T02420114  RH  044%=      5-min Rain = 0
KREE 141212Z 21008KT 24/11 A3002 RMK A01 T02420114  RH  045%=      5-min Rain = 0
KREE 141213Z 21008KT 24/11 A3002 RMK A01 T02420114  RH  045%=      5-min Rain = 0
KREE 141214Z 21008KT 24/11 A3002 RMK A01 T02420114  RH  045%=      5-min Rain = 0
KREE 141215Z 21008KT 24/11 A3002 RMK A01 T02420114  RH  045%=      5-min Rain = 0
KREE 141216Z 21008KT 24/11 A3002 RMK A01 T02410114  RH  045%=      5-min Rain = 0
KREE 141217Z 22008KT 24/11 A3002 RMK A01 T02410114  RH  045%=      5-min Rain = 0
KREE 141218Z 21007KT 24/12 A3002 RMK A01 T02410115  RH  045%=      5-min Rain = 0
KREE 141219Z 22007KT 24/12 A3002 RMK A01 T02400115  RH  045%=      5-min Rain = 0
KREE 141220Z 22007KT 24/12 A3002 RMK A01 T02400115  RH  045%=      5-min Rain = 0
KREE 141221Z 22006KT 24/12 A3002 RMK A01 T02400115  RH  045%=      5-min Rain = 0
KREE 141222Z 22006KT 24/12 A3002 RMK A01 T02390115  RH  046%=      5-min Rain = 0
KREE 141223Z 22006KT 24/12 A3002 RMK A01 T02390115  RH  046%=      5-min Rain = 0
KREE 141224Z 22006KT 24/12 A3002 RMK A01 T02380115  RH  046%=      5-min Rain = 0
KREE 141225Z 22006KT 24/12 A3002 RMK A01 T02380115  RH  046%=      5-min Rain = 0
KREE 141226Z 22006KT 24/12 A3002 RMK A01 T02380115  RH  046%=      5-min Rain = 0
KREE 141227Z 22006KT 24/12 A3002 RMK A01 T02380115  RH  046%=      5-min Rain = 0
KREE 141228Z 22006KT 24/12 A3002 RMK A01 T02380115  RH  046%=      5-min Rain = 0
KREE 141229Z 22006KT 24/12 A3002 RMK A01 T02370115  RH  046%=      5-min Rain = 0
KREE 141230Z 22007KT 24/12 A3002 RMK A01 T02380115  RH  046%=      5-min Rain = 0
KREE 141231Z 22007KT 24/12 A3002 RMK A01 T02380115  RH  046%=      5-min Rain = 0
KREE 141232Z 22007KT 24/12 A3002 RMK A01 T02390115  RH  046%=      5-min Rain = 0
KREE 141233Z 22007KT 24/12 A3002 RMK A01 T02390115  RH  045%=      5-min Rain = 0
KREE 141234Z 22007KT 24/12 A3002 RMK A01 T02400115  RH  045%=      5-min Rain = 0
KREE 141235Z 22007KT 24/12 A3002 RMK A01 T02410115  RH  045%=      5-min Rain = 0
KREE 141236Z 22007KT 24/12 A3002 RMK A01 T02410115  RH  045%=      5-min Rain = 0
KREE 141237Z 21007KT 24/12 A3002 RMK A01 T02410115  RH  045%=      5-min Rain = 0
KREE 141238Z 21007KT 24/12 A3002 RMK A01 T02410115  RH  045%=      5-min Rain = 0
KREE 141239Z 21007KT 24/12 A3002 RMK A01 T02420115  RH  045%=      5-min Rain = 0
KREE 141240Z 21007KT 24/12 A3002 RMK A01 T02420115  RH  045%=      5-min Rain = 0
KREE 141241Z 21007KT 24/12 A3002 RMK A01 T02420115  RH  045%=      5-min Rain = 0
KREE 141242Z 21007KT 24/12 A3002 RMK A01 T02420116  RH  045%=      5-min Rain = 0
KREE 141243Z 21008KT 24/12 A3002 RMK A01 T02420116  RH  045%=      5-min Rain = 0
KREE 141244Z 21008KT 24/12 A3002 RMK A01 T02430116  RH  045%=      5-min Rain = 0
KREE 141245Z 21007KT 24/12 A3002 RMK A01 T02440116  RH  045%=      5-min Rain = 0
KREE 141246Z 21007KT 24/12 A3002 RMK A01 T02440116  RH  045%=      5-min Rain = 0
KREE 141247Z 21007KT 25/12 A3002 RMK A01 T02450116  RH  045%=      5-min Rain = 0
KREE 141248Z 21007KT 25/12 A3002 RMK A01 T02450117  RH  044%=      5-min Rain = 0
KREE 141249Z 21007KT 25/12 A3002 RMK A01 T02450117  RH  044%=      5-min Rain = 0
KREE 141250Z 21007KT 25/12 A3002 RMK A01 T02450117  RH  045%=      5-min Rain = 0
KREE 141251Z 21007KT 25/12 A3002 RMK A01 T02450117  RH  045%=      5-min Rain = 0
KREE 141252Z 21007KT 25/12 A3002 RMK A01 T02450117  RH  045%=      5-min Rain = 0
KREE 141253Z 21007KT 25/12 A3002 RMK A01 T02450118  RH  045%=      5-min Rain = 0
KREE 141254Z 21006KT 25/12 A3002 RMK A01 T02450118  RH  045%=      5-min Rain = 0
KREE 141255Z 21006KT 25/12 A3002 RMK A01 T02450118  RH  045%=      5-min Rain = 0
KREE 141256Z 21006KT 25/12 A3002 RMK A01 T02450119  RH  045%=      5-min Rain = 0
KREE 141257Z 21006KT 25/12 A3002 RMK A01 T02450120  RH  045%=      5-min Rain = 0
KREE 141258Z 21007KT 25/12 A3002 RMK A01 T02450120  RH  046%=      5-min Rain = 0
KREE 141259Z 21007KT 25/12 A3002 RMK A01 T02450120  RH  046%=      5-min Rain = 0
KREE 141300Z 21006KT 24/12 A3002 RMK A01 T02440120  RH  046%=      5-min Rain = 0
KREE 141301Z 21006KT 24/12 A3003 RMK A01 T02440120  RH  046%=      5-min Rain = 0
KREE 141302Z 21007KT 24/12 A3003 RMK A01 T02440120  RH  046%=      5-min Rain = 0
KREE 141303Z 21006KT 24/12 A3003 RMK A01 T02440120  RH  046%=      5-min Rain = 0
KREE 141304Z 21006KT 25/12 A3003 RMK A01 T02450120  RH  046%=      5-min Rain = 0
KREE 141305Z 21006KT 25/12 A3003 RMK A01 T02450120  RH  046%=      5-min Rain = 0
KREE 141306Z 21007KT 25/12 A3003 RMK A01 T02450120  RH  045%=      5-min Rain = 0
KREE 141307Z 22007KT 25/12 A3003 RMK A01 T02460120  RH  045%=      5-min Rain = 0
KREE 141308Z 21007KT 25/12 A3003 RMK A01 T02470120  RH  045%=      5-min Rain = 0
KREE 141309Z 21007KT 25/12 A3003 RMK A01 T02470120  RH  045%=      5-min Rain = 0
KREE 141310Z 21006KT 25/12 A3003 RMK A01 T02470120  RH  045%=      5-min Rain = 0
KREE 141311Z 21006KT 25/12 A3003 RMK A01 T02480121  RH  045%=      5-min Rain = 0
KREE 141312Z 21006KT 25/12 A3003 RMK A01 T02480121  RH  045%=      5-min Rain = 0
KREE 141313Z 21006KT 25/12 A3003 RMK A01 T02480121  RH  045%=      5-min Rain = 0
KREE 141314Z 21005KT 25/12 A3003 RMK A01 T02490121  RH  045%=      5-min Rain = 0
KREE 141315Z 21006KT 25/12 A3003 RMK A01 T02500122  RH  045%=      5-min Rain = 0
KREE 141316Z 21006KT 25/12 A3003 RMK A01 T02500122  RH  045%=      5-min Rain = 0
KREE 141317Z 21005KT 25/12 A3003 RMK A01 T02510122  RH  045%=      5-min Rain = 0
KREE 141318Z 21006KT 25/12 A3003 RMK A01 T02510123  RH  045%=      5-min Rain = 0
KREE 141319Z 21006KT 25/12 A3003 RMK A01 T02520122  RH  044%=      5-min Rain = 0
KREE 141320Z 21007KT 25/12 A3003 RMK A01 T02520122  RH  044%=      5-min Rain = 0
KREE 141321Z 21006KT 25/12 A3003 RMK A01 T02520122  RH  044%=      5-min Rain = 0
KREE 141322Z 21006KT 25/12 A3003 RMK A01 T02530122  RH  044%=      5-min Rain = 0
KREE 141323Z 21006KT 25/12 A3003 RMK A01 T02540122  RH  044%=      5-min Rain = 0
KREE 141324Z 21005KT 25/12 A3003 RMK A01 T02540123  RH  044%=      5-min Rain = 0
KREE 141325Z 21006KT 26/12 A3003 RMK A01 T02550123  RH  044%=      5-min Rain = 0
KREE 141326Z 21005KT 26/12 A3003 RMK A01 T02560123  RH  043%=      5-min Rain = 0
KREE 141327Z 21005KT 26/12 A3003 RMK A01 T02560123  RH  043%=      5-min Rain = 0
KREE 141328Z 22006KT 26/12 A3003 RMK A01 T02570122  RH  043%=      5-min Rain = 0
KREE 141329Z 23006KT 26/12 A3003 RMK A01 T02580123  RH  043%=      5-min Rain = 0
KREE 141330Z 22005KT 26/12 A3003 RMK A01 T02590123  RH  043%=      5-min Rain = 0
KREE 141331Z 23006KT 26/12 A3003 RMK A01 T02610124  RH  043%=      5-min Rain = 0
KREE 141332Z 23005KT 26/12 A3003 RMK A01 T02630124  RH  042%=      5-min Rain = 0
KREE 141333Z 23006KT 26/13 A3003 RMK A01 T02640125  RH  042%=      5-min Rain = 0
KREE 141334Z 23007KT 27/12 A3003 RMK A01 T02660124  RH  041%=      5-min Rain = 0
KREE 141335Z 25006KT 27/12 A3003 RMK A01 T02670124  RH  041%=      5-min Rain = 0
KREE 141336Z 25007KT 27/12 A3004 RMK A01 T02690124  RH  041%=      5-min Rain = 0
KREE 141337Z 25009KT 27/12 A3004 RMK A01 T02710123  RH  040%=      5-min Rain = 0
KREE 141338Z 24008KT 27/12 A3004 RMK A01 T02710123  RH  040%=      5-min Rain = 0
KREE 141339Z 25008KT 27/12 A3004 RMK A01 T02710124  RH  040%=      5-min Rain = 0
KREE 141340Z 25008KT 27/12 A3004 RMK A01 T02710124  RH  040%=      5-min Rain = 0
KREE 141341Z 24007KT 27/12 A3004 RMK A01 T02710124  RH  040%=      5-min Rain = 0
KREE 141342Z 24008KT 27/13 A3004 RMK A01 T02700125  RH  040%=      5-min Rain = 0
KREE 141343Z 24007KT 27/13 A3004 RMK A01 T02710125  RH  040%=      5-min Rain = 0
KREE 141344Z 24008KT 27/13 A3004 RMK A01 T02720125  RH  040%=      5-min Rain = 0
KREE 141345Z 25009KT 27/13 A3004 RMK A01 T02740125  RH  040%=      5-min Rain = 0
KREE 141346Z 25008KT 28/12 A3004 RMK A01 T02750124  RH  039%=      5-min Rain = 0
KREE 141347Z 25007KT 28/13 A3004 RMK A01 T02760125  RH  039%=      5-min Rain = 0
KREE 141348Z 25010KT 28/13 A3004 RMK A01 T02770125  RH  039%=      5-min Rain = 0
KREE 141349Z 25008KT 28/13 A3004 RMK A01 T02770125  RH  039%=      5-min Rain = 0
KREE 141350Z 25007KT 28/13 A3004 RMK A01 T02770125  RH  039%=      5-min Rain = 0
KREE 141351Z 25009KT 28/13 A3004 RMK A01 T02780125  RH  039%=      5-min Rain = 0
KREE 141352Z 25010KT 28/12 A3004 RMK A01 T02790124  RH  038%=      5-min Rain = 0
KREE 141353Z 24009KT 28/13 A3004 RMK A01 T02780125  RH  039%=      5-min Rain = 0
KREE 141354Z 25010KT 28/13 A3004 RMK A01 T02780126  RH  039%=      5-min Rain = 0
KREE 141355Z 25008KT 28/13 A3004 RMK A01 T02790127  RH  039%=      5-min Rain = 0
KREE 141356Z 24009KT 28/13 A3004 RMK A01 T02810127  RH  039%=      5-min Rain = 0
KREE 141357Z 24010KT 28/13 A3004 RMK A01 T02820127  RH  038%=      5-min Rain = 0
KREE 141358Z 23010KT 28/13 A3004 RMK A01 T02830128  RH  038%=      5-min Rain = 0
KREE 141359Z 24009KT 28/13 A3004 RMK A01 T02830128  RH  038%=      5-min Rain = 0
KREE 141400Z 25012KT 28/13 A3004 RMK A01 T02840128  RH  038%=      5-min Rain = 0
KREE 141401Z 24010KT 28/13 A3004 RMK A01 T02840129  RH  038%=      5-min Rain = 0
KREE 141402Z 25010KT 28/13 A3004 RMK A01 T02840129  RH  038%=      5-min Rain = 0
KREE 141403Z 24009KT 29/13 A3004 RMK A01 T02850130  RH  038%=      5-min Rain = 0
KREE 141404Z 24010KT 29/13 A3004 RMK A01 T02870130  RH  038%=      5-min Rain = 0
KREE 141405Z 24011KT 29/13 A3004 RMK A01 T02870130  RH  038%=      5-min Rain = 0
KREE 141406Z 24011KT 29/13 A3004 RMK A01 T02890130  RH  038%=      5-min Rain = 0
KREE 141407Z 24011KT 29/13 A3004 RMK A01 T02900130  RH  037%=      5-min Rain = 0
KREE 141408Z 24012KT 29/13 A3004 RMK A01 T02910130  RH  037%=      5-min Rain = 0
KREE 141409Z 24012KT 29/13 A3004 RMK A01 T02900130  RH  037%=      5-min Rain = 0
KREE 141410Z 24011KT 29/13 A3004 RMK A01 T02900130  RH  037%=      5-min Rain = 0
KREE 141411Z 23010KT 29/13 A3004 RMK A01 T02890131  RH  038%=      5-min Rain = 0
KREE 141412Z 22013KT 29/13 A3003 RMK A01 T02900130  RH  037%=      5-min Rain = 0
KREE 141413Z 23013KT 29/13 A3004 RMK A01 T02910130  RH  037%=      5-min Rain = 0
KREE 141414Z 24013KT 29/13 A3003 RMK A01 T02910130  RH  037%=      5-min Rain = 0
KREE 141415Z 23012KT 29/13 A3003 RMK A01 T02910130  RH  037%=      5-min Rain = 0
KREE 141416Z 24013KT 29/13 A3003 RMK A01 T02910130  RH  037%=      5-min Rain = 0
KREE 141417Z 23013KT 29/13 A3004 RMK A01 T02920130  RH  037%=      5-min Rain = 0
KREE 141418Z 23011KT 29/13 A3004 RMK A01 T02930130  RH  037%=      5-min Rain = 0
KREE 141419Z 24011KT 30/13 A3004 RMK A01 T02950130  RH  036%=      5-min Rain = 0
KREE 141420Z 25012KT 30/13 A3004 RMK A01 T02970130  RH  036%=      5-min Rain = 0
KREE 141421Z 25011KT 30/13 A3004 RMK A01 T02980131  RH  036%=      5-min Rain = 0
KREE 141422Z 26012KT 30/13 A3004 RMK A01 T03000131  RH  036%=      5-min Rain = 0
KREE 141423Z 24012KT 30/13 A3004 RMK A01 T03000130  RH  035%=      5-min Rain = 0
KREE 141424Z 24012KT 30/13 A3004 RMK A01 T02990130  RH  035%=      5-min Rain = 0
KREE 141425Z 23013KT 30/13 A3004 RMK A01 T02980130  RH  036%=      5-min Rain = 0
KREE 141426Z 23012KT 30/13 A3004 RMK A01 T02970129  RH  036%=      5-min Rain = 0
KREE 141427Z 23011KT 30/13 A3004 RMK A01 T02960130  RH  036%=      5-min Rain = 0
KREE 141428Z 23011KT 30/13 A3004 RMK A01 T02960130  RH  036%=      5-min Rain = 0
KREE 141429Z 25010KT 30/13 A3004 RMK A01 T02970130  RH  036%=      5-min Rain = 0
KREE 141430Z 26011KT 30/13 A3004 RMK A01 T02970130  RH  036%=      5-min Rain = 0
KREE 141431Z 26013KT 30/13 A3004 RMK A01 T02950130  RH  036%=      5-min Rain = 0
KREE 141432Z 24011KT 29/13 A3004 RMK A01 T02940130  RH  036%=      5-min Rain = 0
KREE 141433Z 23009KT 29/13 A3004 RMK A01 T02930131  RH  037%=      5-min Rain = 0
KREE 141434Z 24010KT 29/13 A3004 RMK A01 T02940131  RH  037%=      5-min Rain = 0
KREE 141435Z 25009KT 30/13 A3004 RMK A01 T02950131  RH  036%=      5-min Rain = 0
KREE 141436Z 25008KT 30/13 A3004 RMK A01 T02950132  RH  037%=      5-min Rain = 0
KREE 141437Z 25010KT 30/13 A3004 RMK A01 T02960131  RH  036%=      5-min Rain = 0
KREE 141438Z 26009KT 30/13 A3004 RMK A01 T02950131  RH  037%=      5-min Rain = 0
KREE 141439Z 27008KT 30/13 A3004 RMK A01 T02950131  RH  037%=      5-min Rain = 0
KREE 141440Z 26008KT 30/13 A3004 RMK A01 T02950131  RH  037%=      5-min Rain = 0
KREE 141441Z 27007KT 30/13 A3004 RMK A01 T02950132  RH  037%=      5-min Rain = 0
KREE 141442Z 26009KT 30/13 A3004 RMK A01 T02960131  RH  036%=      5-min Rain = 0
KREE 141443Z 26009KT 30/13 A3004 RMK A01 T02960130  RH  036%=      5-min Rain = 0
KREE 141444Z 25008KT 29/13 A3004 RMK A01 T02930130  RH  037%=      5-min Rain = 0
KREE 141445Z 25010KT 29/13 A3005 RMK A01 T02920129  RH  037%=      5-min Rain = 0
KREE 141446Z 24009KT 29/13 A3005 RMK A01 T02920130  RH  037%=      5-min Rain = 0
KREE 141447Z 24010KT 29/13 A3005 RMK A01 T02920130  RH  037%=      5-min Rain = 0
KREE 141448Z 26008KT 29/13 A3005 RMK A01 T02920131  RH  037%=      5-min Rain = 0
KREE 141449Z 25010KT 29/13 A3005 RMK A01 T02940130  RH  037%=      5-min Rain = 0
KREE 141450Z 24008KT 29/13 A3005 RMK A01 T02940130  RH  036%=      5-min Rain = 0
KREE 141451Z 26010KT 30/13 A3005 RMK A01 T02960133  RH  037%=      5-min Rain = 0
KREE 141452Z 26011KT 30/13 A3005 RMK A01 T02990132  RH  036%=      5-min Rain = 0
KREE 141453Z 26010KT 30/13 A3005 RMK A01 T03000132  RH  036%=      5-min Rain = 0
KREE 141454Z 25010KT 30/13 A3005 RMK A01 T02990132  RH  036%=      5-min Rain = 0
KREE 141455Z 25009KT 30/13 A3005 RMK A01 T02970131  RH  036%=      5-min Rain = 0
KREE 141456Z 25008KT 30/13 A3004 RMK A01 T02950130  RH  036%=      5-min Rain = 0
KREE 141457Z 25008KT 29/13 A3004 RMK A01 T02940131  RH  037%=      5-min Rain = 0
KREE 141458Z 24009KT 29/13 A3004 RMK A01 T02930131  RH  037%=      5-min Rain = 0
KREE 141459Z 23007KT 29/13 A3004 RMK A01 T02920131  RH  037%=      5-min Rain = 0
KREE 141500Z 26008KT 29/13 A3004 RMK A01 T02930131  RH  037%=      5-min Rain = 0
KREE 141501Z 25008KT 30/13 A3004 RMK A01 T02950130  RH  036%=      5-min Rain = 0
KREE 141502Z 26008KT 30/13 A3004 RMK A01 T02950129  RH  036%=      5-min Rain = 0
KREE 141503Z 26008KT 30/13 A3004 RMK A01 T02950129  RH  036%=      5-min Rain = 0
KREE 141504Z 26009KT 30/13 A3005 RMK A01 T02960129  RH  036%=      5-min Rain = 0
KREE 141505Z 26009KT 30/13 A3005 RMK A01 T02950129  RH  036%=      5-min Rain = 0
KREE 141506Z 25009KT 30/13 A3005 RMK A01 T02970130  RH  036%=      5-min Rain = 0
KREE 141507Z 24010KT 30/13 A3005 RMK A01 T02990129  RH  035%=      5-min Rain = 0
KREE 141508Z 24010KT 30/13 A3005 RMK A01 T02970127  RH  035%=      5-min Rain = 0
KREE 141509Z 23009KT 30/13 A3005 RMK A01 T02950128  RH  036%=      5-min Rain = 0
KREE 141510Z 24010KT 29/13 A3005 RMK A01 T02940128  RH  036%=      5-min Rain = 0
KREE 141511Z 23008KT 29/13 A3005 RMK A01 T02940128  RH  036%=      5-min Rain = 0
KREE 141512Z 23010KT 29/13 A3005 RMK A01 T02930128  RH  036%=      5-min Rain = 0
KREE 141513Z 24009KT 29/13 A3005 RMK A01 T02930126  RH  036%=      5-min Rain = 0
KREE 141514Z 25009KT 29/13 A3005 RMK A01 T02920126  RH  036%=      5-min Rain = 0
KREE 141515Z 25008KT 29/13 A3005 RMK A01 T02920126  RH  036%=      5-min Rain = 0
KREE 141516Z 24008KT 29/13 A3005 RMK A01 T02920127  RH  036%=      5-min Rain = 0
KREE 141517Z 25007KT 29/13 A3005 RMK A01 T02930126  RH  036%=      5-min Rain = 0
KREE 141518Z 25007KT 29/13 A3005 RMK A01 T02930127  RH  036%=      5-min Rain = 0
KREE 141519Z 25008KT 29/13 A3005 RMK A01 T02930126  RH  036%=      5-min Rain = 0
KREE 141520Z 26007KT 29/13 A3005 RMK A01 T02920126  RH  036%=      5-min Rain = 0
KREE 141521Z 25007KT 29/13 A3005 RMK A01 T02920126  RH  036%=      5-min Rain = 0
KREE 141522Z 24007KT 29/13 A3005 RMK A01 T02920126  RH  036%=      5-min Rain = 0
KREE 141523Z 25008KT 29/13 A3005 RMK A01 T02920126  RH  036%=      5-min Rain = 0
KREE 141524Z 25006KT 29/13 A3005 RMK A01 T02920125  RH  036%=      5-min Rain = 0
KREE 141525Z 24007KT 29/13 A3005 RMK A01 T02920127  RH  036%=      5-min Rain = 0
KREE 141526Z 24007KT 29/13 A3005 RMK A01 T02940127  RH  036%=      5-min Rain = 0
KREE 141527Z 24007KT 29/13 A3005 RMK A01 T02940128  RH  036%=      5-min Rain = 0
KREE 141528Z 23007KT 29/13 A3004 RMK A01 T02940128  RH  036%=      5-min Rain = 0
KREE 141529Z 25007KT 29/13 A3004 RMK A01 T02940127  RH  036%=      5-min Rain = 0
KREE 141530Z 25006KT 29/13 A3004 RMK A01 T02940126  RH  036%=      5-min Rain = 0
KREE 141531Z 26007KT 29/13 A3004 RMK A01 T02940127  RH  036%=      5-min Rain = 0
KREE 141532Z 25007KT 30/13 A3004 RMK A01 T02950126  RH  035%=      5-min Rain = 0
KREE 141533Z 26006KT 29/13 A3004 RMK A01 T02940127  RH  036%=      5-min Rain = 0
KREE 141534Z 25007KT 29/13 A3004 RMK A01 T02940127  RH  036%=      5-min Rain = 0
KREE 141535Z 24008KT 29/13 A3004 RMK A01 T02930127  RH  036%=      5-min Rain = 0
KREE 141536Z 24008KT 29/13 A3004 RMK A01 T02930126  RH  036%=      5-min Rain = 0
KREE 141537Z 26007KT 29/13 A3004 RMK A01 T02930127  RH  036%=      5-min Rain = 0
KREE 141538Z 26006KT 29/13 A3004 RMK A01 T02930127  RH  036%=      5-min Rain = 0
KREE 141539Z 26006KT 29/13 A3004 RMK A01 T02930127  RH  036%=      5-min Rain = 0
KREE 141540Z 24007KT 29/13 A3004 RMK A01 T02940127  RH  036%=      5-min Rain = 0
KREE 141541Z 25006KT 29/13 A3004 RMK A01 T02940127  RH  036%=      5-min Rain = 0
KREE 141542Z 25004KT 29/13 A3004 RMK A01 T02940126  RH  036%=      5-min Rain = 0
KREE 141543Z 25004KT 29/13 A3004 RMK A01 T02940127  RH  036%=      5-min Rain = 0
KREE 141544Z 27006KT 30/13 A3004 RMK A01 T02950126  RH  035%=      5-min Rain = 0
KREE 141545Z 29006KT 30/13 A3004 RMK A01 T02960127  RH  035%=      5-min Rain = 0
KREE 141546Z 29006KT 30/13 A3004 RMK A01 T02960127  RH  035%=      5-min Rain = 0
KREE 141547Z 27007KT 30/13 A3004 RMK A01 T02970128  RH  035%=      5-min Rain = 0
KREE 141548Z 28006KT 30/13 A3004 RMK A01 T02990129  RH  035%=      5-min Rain = 0
KREE 141549Z 28008KT 30/13 A3004 RMK A01 T03000127  RH  035%=      5-min Rain = 0
KREE 141550Z 28007KT 30/13 A3004 RMK A01 T03000128  RH  035%=      5-min Rain = 0
KREE 141551Z 27009KT 30/13 A3004 RMK A01 T02990128  RH  035%=      5-min Rain = 0
KREE 141552Z 28007KT 30/13 A3004 RMK A01 T02990127  RH  035%=      5-min Rain = 0
KREE 141553Z 27008KT 30/13 A3004 RMK A01 T03000127  RH  035%=      5-min Rain = 0
KREE 141554Z 27008KT 30/13 A3004 RMK A01 T03000126  RH  034%=      5-min Rain = 0
KREE 141555Z 26009KT 30/13 A3004 RMK A01 T03010126  RH  034%=      5-min Rain = 0
KREE 141556Z 27008KT 30/13 A3004 RMK A01 T03010125  RH  034%=      5-min Rain = 0
KREE 141557Z 27008KT 30/13 A3004 RMK A01 T03010126  RH  034%=      5-min Rain = 0
KREE 141558Z 27008KT 30/13 A3004 RMK A01 T03010126  RH  034%=      5-min Rain = 0
KREE 141559Z 27007KT 30/13 A3004 RMK A01 T03010127  RH  034%=      5-min Rain = 0
KREE 141600Z 27008KT 30/13 A3003 RMK A01 T03010127  RH  034%=      5-min Rain = 0
KREE 141601Z 27008KT 30/13 A3004 RMK A01 T03020127  RH  034%=      5-min Rain = 0
KREE 141602Z 27007KT 30/13 A3004 RMK A01 T03020128  RH  034%=      5-min Rain = 0
KREE 141603Z 28007KT 30/13 A3004 RMK A01 T03030129  RH  034%=      5-min Rain = 0
KREE 141604Z 28008KT 30/13 A3004 RMK A01 T03030128  RH  034%=      5-min Rain = 0
KREE 141605Z 28007KT 30/13 A3004 RMK A01 T03040129  RH  034%=      5-min Rain = 0
KREE 141606Z 27008KT 31/13 A3004 RMK A01 T03050128  RH  034%=      5-min Rain = 0
KREE 141607Z 27008KT 31/13 A3003 RMK A01 T03050128  RH  034%=      5-min Rain = 0
KREE 141608Z 28007KT 31/13 A3003 RMK A01 T03050129  RH  034%=      5-min Rain = 0
KREE 141609Z 28008KT 31/13 A3003 RMK A01 T03050128  RH  034%=      5-min Rain = 0
KREE 141610Z 28008KT 31/13 A3003 RMK A01 T03050127  RH  034%=      5-min Rain = 0
KREE 141611Z 28009KT 31/13 A3003 RMK A01 T03060128  RH  034%=      5-min Rain = 0
KREE 141612Z 29008KT 31/13 A3003 RMK A01 T03070128  RH  034%=      5-min Rain = 0
KREE 141613Z 29008KT 31/13 A3003 RMK A01 T03070130  RH  034%=      5-min Rain = 0
KREE 141614Z 29009KT 31/13 A3003 RMK A01 T03090128  RH  033%=      5-min Rain = 0
KREE 141615Z 29010KT 31/13 A3003 RMK A01 T03090128  RH  033%=      5-min Rain = 0
KREE 141616Z 29009KT 31/13 A3003 RMK A01 T03080128  RH  033%=      5-min Rain = 0
KREE 141617Z 29009KT 31/13 A3003 RMK A01 T03090129  RH  033%=      5-min Rain = 0
KREE 141618Z 29010KT 31/13 A3003 RMK A01 T03100128  RH  033%=      5-min Rain = 0
KREE 141619Z 30008KT 31/13 A3003 RMK A01 T03100128  RH  033%=      5-min Rain = 0
KREE 141620Z 30009KT 31/13 A3003 RMK A01 T03110128  RH  033%=      5-min Rain = 0
KREE 141621Z 30008KT 31/13 A3003 RMK A01 T03110128  RH  033%=      5-min Rain = 0
KREE 141622Z 30009KT 31/13 A3003 RMK A01 T03120129  RH  033%=      5-min Rain = 0
KREE 141623Z 30010KT 31/13 A3003 RMK A01 T03140128  RH  032%=      5-min Rain = 0
KREE 141624Z 29010KT 32/13 A3003 RMK A01 T03150129  RH  032%=      5-min Rain = 0
KREE 141625Z 30011KT 32/13 A3003 RMK A01 T03170127  RH  031%=      5-min Rain = 0
KREE 141626Z 29011KT 32/13 A3003 RMK A01 T03180128  RH  031%=      5-min Rain = 0
KREE 141627Z 29010KT 32/13 A3003 RMK A01 T03180128  RH  031%=      5-min Rain = 0
KREE 141628Z 29010KT 32/13 A3003 RMK A01 T03190128  RH  031%=      5-min Rain = 0
KREE 141629Z 29011KT 32/13 A3003 RMK A01 T03200127  RH  031%=      5-min Rain = 0
KREE 141630Z 29011KT 32/13 A3003 RMK A01 T03210126  RH  030%=      5-min Rain = 0
KREE 141631Z 29012KT 32/13 A3003 RMK A01 T03220125  RH  030%=      5-min Rain = 0
KREE 141632Z 28012KT 32/13 A3003 RMK A01 T03240126  RH  030%=      5-min Rain = 0
KREE 141633Z 28011KT 33/13 A3003 RMK A01 T03250126  RH  030%=      5-min Rain = 0
KREE 141634Z 27012KT 33/13 A3003 RMK A01 T03260126  RH  030%=      5-min Rain = 0
KREE 141635Z 27011KT 33/13 A3003 RMK A01 T03250126  RH  030%=      5-min Rain = 0
KREE 141636Z 27010KT 33/13 A3003 RMK A01 T03260127  RH  030%=      5-min Rain = 0
KREE 141637Z 26010KT 33/13 A3003 RMK A01 T03270128  RH  030%=      5-min Rain = 0
KREE 141638Z 27010KT 33/13 A3003 RMK A01 T03280128  RH  030%=      5-min Rain = 0
KREE 141639Z 27011KT 33/13 A3003 RMK A01 T03280127  RH  029%=      5-min Rain = 0
KREE 141640Z 28011KT 33/13 A3003 RMK A01 T03300130  RH  030%=      5-min Rain = 0
KREE 141641Z 27013KT 33/13 A3003 RMK A01 T03310129  RH  029%=      5-min Rain = 0
KREE 141642Z 27012KT 33/13 A3003 RMK A01 T03320129  RH  029%=      5-min Rain = 0
KREE 141643Z 27012KT 33/13 A3003 RMK A01 T03330126  RH  029%=      5-min Rain = 0
KREE 141644Z 27011G16KT 33/13 A3003 RMK A01 T03340126  RH  028%=      5-min Rain = 0
KREE 141645Z 27014KT 34/12 A3003 RMK A01 T03360119  RH  027%=      5-min Rain = 0
KREE 141646Z 27013KT 34/12 A3003 RMK A01 T03370118  RH  026%=      5-min Rain = 0
KREE 141647Z 27014KT 34/12 A3003 RMK A01 T03370118  RH  026%=      5-min Rain = 0
KREE 141648Z 27014KT 34/12 A3003 RMK A01 T03380119  RH  026%=      5-min Rain = 0
KREE 141649Z 27014KT 34/12 A3003 RMK A01 T03380120  RH  027%=      5-min Rain = 0
KREE 141650Z 27015KT 34/12 A3003 RMK A01 T03390119  RH  026%=      5-min Rain = 0
KREE 141651Z 28015KT 34/12 A3003 RMK A01 T03400119  RH  026%=      5-min Rain = 0
KREE 141652Z 27014G19KT 34/12 A3003 RMK A01 T03400122  RH  027%=      5-min Rain = 0
KREE 141653Z 27014KT 34/12 A3003 RMK A01 T03400122  RH  027%=      5-min Rain = 0
KREE 141654Z 27013KT 34/12 A3003 RMK A01 T03390124  RH  027%=      5-min Rain = 0
KREE 141655Z 27013KT 34/12 A3003 RMK A01 T03390124  RH  027%=      5-min Rain = 0
KREE 141656Z 26012KT 34/13 A3003 RMK A01 T03400126  RH  027%=      5-min Rain = 0
KREE 141657Z 25014KT 34/13 A3003 RMK A01 T03420126  RH  027%=      5-min Rain = 0
KREE 141658Z 26014KT 34/13 A3003 RMK A01 T03420125  RH  027%=      5-min Rain = 0
KREE 141659Z 26014KT 34/12 A3003 RMK A01 T03430123  RH  026%=      5-min Rain = 0
KREE 141700Z 26014KT 34/12 A3003 RMK A01 T03430123  RH  026%=      5-min Rain = 0
KREE 141701Z 27015KT 35/12 A3003 RMK A01 T03450122  RH  026%=      5-min Rain = 0
KREE 141702Z 27014KT 35/12 A3003 RMK A01 T03460119  RH  025%=      5-min Rain = 0
KREE 141703Z 27015KT 35/12 A3003 RMK A01 T03470119  RH  025%=      5-min Rain = 0
KREE 141704Z 27013KT 35/12 A3003 RMK A01 T03480116  RH  025%=      5-min Rain = 0
KREE 141705Z 27012KT 35/11 A3003 RMK A01 T03490114  RH  024%=      5-min Rain = 0
KREE 141706Z 27011KT 35/12 A3003 RMK A01 T03530120  RH  024%=      5-min Rain = 0
KREE 141707Z 27011KT 36/12 A3003 RMK A01 T03560121  RH  024%=      5-min Rain = 0
KREE 141708Z 26010KT 36/12 A3003 RMK A01 T03570122  RH  024%=      5-min Rain = 0
KREE 141709Z 27012KT 36/12 A3003 RMK A01 T03610118  RH  023%=      5-min Rain = 0
KREE 141710Z 27011KT 36/11 A3003 RMK A01 T03600111  RH  022%=      5-min Rain = 0
KREE 141711Z 26011KT 36/11 A3003 RMK A01 T03580113  RH  023%=      5-min Rain = 0
KREE 141712Z 26011KT 36/11 A3003 RMK A01 T03590111  RH  022%=      5-min Rain = 0
KREE 141713Z 26011KT 36/11 A3003 RMK A01 T03590107  RH  022%=      5-min Rain = 0
KREE 141714Z 26011KT 36/11 A3003 RMK A01 T03590113  RH  023%=      5-min Rain = 0
KREE 141715Z 26012KT 36/11 A3003 RMK A01 T03610114  RH  023%=      5-min Rain = 0
KREE 141716Z 25013KT 36/11 A3003 RMK A01 T03630110  RH  022%=      5-min Rain = 0
KREE 141717Z 25013KT 36/11 A3003 RMK A01 T03630108  RH  021%=      5-min Rain = 0
KREE 141718Z 26014KT 37/11 A3003 RMK A01 T03650106  RH  021%=      5-min Rain = 0
KREE 141719Z 26014KT 36/11 A3002 RMK A01 T03640105  RH  021%=      5-min Rain = 0
KREE 141720Z 25014KT 36/10 A3002 RMK A01 T03630104  RH  021%=      5-min Rain = 0
KREE 141721Z 25014G19KT 37/10 A3002 RMK A01 T03650104  RH  021%=      5-min Rain = 0
KREE 141722Z 25013KT 37/10 A3002 RMK A01 T03660104  RH  021%=      5-min Rain = 0
KREE 141723Z 25011KT 37/11 A3002 RMK A01 T03670106  RH  021%=      5-min Rain = 0
KREE 141724Z 25013KT 37/11 A3002 RMK A01 T03680107  RH  021%=      5-min Rain = 0
KREE 141725Z 25011KT 37/11 A3002 RMK A01 T03660105  RH  021%=      5-min Rain = 0
KREE 141726Z 25014KT 37/10 A3002 RMK A01 T03670101  RH  020%=      5-min Rain = 0
KREE 141727Z 25013KT 37/10 A3002 RMK A01 T03690100  RH  020%=      5-min Rain = 0
KREE 141728Z 26013KT 37/10 A3002 RMK A01 T03730102  RH  019%=      5-min Rain = 0
KREE 141729Z 26015KT 38/10 A3002 RMK A01 T03750100  RH  019%=      5-min Rain = 0
KREE 141730Z 25016KT 37/10 A3002 RMK A01 T03720098  RH  019%=      5-min Rain = 0
KREE 141731Z 25016KT 37/10 A3002 RMK A01 T03690099  RH  020%=      5-min Rain = 0
KREE 141732Z 26014KT 37/10 A3002 RMK A01 T03670101  RH  020%=      5-min Rain = 0
KREE 141733Z 26016KT 37/10 A3002 RMK A01 T03660101  RH  020%=      5-min Rain = 0
KREE 141734Z 26015KT 37/10 A3002 RMK A01 T03670098  RH  020%=      5-min Rain = 0
KREE 141735Z 26014KT 37/10 A3002 RMK A01 T03690101  RH  020%=      5-min Rain = 0
KREE 141736Z 26015KT 37/10 A3002 RMK A01 T03720099  RH  019%=      5-min Rain = 0
KREE 141737Z 26013KT 37/10 A3002 RMK A01 T03720098  RH  019%=      5-min Rain = 0
KREE 141738Z 26013G18KT 38/10 A3002 RMK A01 T03760101  RH  019%=      5-min Rain = 0
KREE 141739Z 27016KT 38/10 A3002 RMK A01 T03790103  RH  019%=      5-min Rain = 0
KREE 141740Z 27013KT 37/11 A3002 RMK A01 T03740106  RH  020%=      5-min Rain = 0
KREE 141741Z 27015KT 37/11 A3002 RMK A01 T03730105  RH  020%=      5-min Rain = 0
KREE 141742Z 27018KT 37/10 A3002 RMK A01 T03730100  RH  019%=      5-min Rain = 0
KREE 141743Z 28015G20KT 37/11 A3002 RMK A01 T03700105  RH  020%=      5-min Rain = 0
KREE 141744Z 27015KT 37/11 A3002 RMK A01 T03690109  RH  021%=      5-min Rain = 0
KREE 141745Z 28015G20KT 37/11 A3002 RMK A01 T03700107  RH  020%=      5-min Rain = 0
KREE 141746Z 27013G19KT 37/10 A3002 RMK A01 T03710104  RH  020%=      5-min Rain = 0
KREE 141747Z 26016KT 37/11 A3002 RMK A01 T03730108  RH  020%=      5-min Rain = 0
KREE 141748Z 25015KT 38/10 A3001 RMK A01 T03790100  RH  019%=      5-min Rain = 0
KREE 141749Z 26013KT 38/10 A3001 RMK A01 T03800104  RH  019%=      5-min Rain = 0
KREE 141750Z 25015KT 38/09 A3001 RMK A01 T03800091  RH  017%=      5-min Rain = 0
KREE 141751Z 27013KT 38/09 A3001 RMK A01 T03780093  RH  018%=      5-min Rain = 0
KREE 141752Z 26013KT 38/10 A3001 RMK A01 T03770097  RH  018%=      5-min Rain = 0
KREE 141753Z 26015KT 38/10 A3001 RMK A01 T03790098  RH  018%=      5-min Rain = 0
KREE 141754Z 26016G21KT 38/09 A3001 RMK A01 T03790094  RH  018%=      5-min Rain = 0
KREE 141755Z 26016KT 38/08 A3001 RMK A01 T03760084  RH  017%=      5-min Rain = 0
KREE 141756Z 25015KT 38/09 A3001 RMK A01 T03770086  RH  017%=      5-min Rain = 0
KREE 141757Z 26015G20KT 38/09 A3001 RMK A01 T03790088  RH  017%=      5-min Rain = 0
KREE 141758Z 26016KT 38/09 A3001 RMK A01 T03780092  RH  018%=      5-min Rain = 0
KREE 141759Z 25014KT 38/09 A3001 RMK A01 T03780091  RH  018%=      5-min Rain = 0
KREE 141800Z 26016KT 38/10 A3001 RMK A01 T03800096  RH  018%=      5-min Rain = 0
KREE 141801Z 26015KT 38/10 A3001 RMK A01 T03790096  RH  018%=      5-min Rain = 0
KREE 141802Z 27016KT 38/10 A3001 RMK A01 T03770097  RH  019%=      5-min Rain = 0
KREE 141803Z 26016KT 38/10 A3001 RMK A01 T03750096  RH  019%=      5-min Rain = 0
KREE 141804Z 26016KT 38/10 A3001 RMK A01 T03760095  RH  018%=      5-min Rain = 0
KREE 141805Z 26016KT 38/10 A3001 RMK A01 T03790100  RH  019%=      5-min Rain = 0
KREE 141806Z 25018KT 38/09 A3001 RMK A01 T03810090  RH  017%=      5-min Rain = 0
KREE 141807Z 25015G20KT 38/09 A3001 RMK A01 T03810088  RH  017%=      5-min Rain = 0
KREE 141808Z 26016KT 38/09 A3001 RMK A01 T03810085  RH  017%=      5-min Rain = 0
KREE 141809Z 25015KT 38/09 A3001 RMK A01 T03820089  RH  017%=      5-min Rain = 0
KREE 141810Z 25017KT 38/08 A3001 RMK A01 T03840080  RH  016%=      5-min Rain = 0
KREE 141811Z 26016G21KT 38/09 A3001 RMK A01 T03840087  RH  017%=      5-min Rain = 0
KREE 141812Z 26018KT 38/09 A3001 RMK A01 T03820089  RH  017%=      5-min Rain = 0
KREE 141813Z 25017G22KT 38/09 A3001 RMK A01 T03790087  RH  017%=      5-min Rain = 0
KREE 141814Z 25014G19KT 38/09 A3001 RMK A01 T03760086  RH  017%=      5-min Rain = 0
KREE 141815Z 25017G22KT 38/09 A3001 RMK A01 T03790085  RH  017%=      5-min Rain = 0
KREE 141816Z 25017G22KT 38/08 A3001 RMK A01 T03790080  RH  016%=      5-min Rain = 0
KREE 141817Z 24017G22KT 38/08 A3001 RMK A01 T03770080  RH  016%=      5-min Rain = 0
KREE 141818Z 24018G24KT 38/08 A3001 RMK A01 T03760079  RH  016%=      5-min Rain = 0
KREE 141819Z 25018KT 38/08 A3001 RMK A01 T03750079  RH  017%=      5-min Rain = 0
KREE 141820Z 25015G20KT 37/08 A3001 RMK A01 T03740077  RH  016%=      5-min Rain = 0
KREE 141821Z 26014G19KT 37/08 A3001 RMK A01 T03740078  RH  016%=      5-min Rain = 0
KREE 141822Z 25016G21KT 38/08 A3001 RMK A01 T03780076  RH  016%=      5-min Rain = 0
KREE 141823Z 25014G19KT 38/08 A3001 RMK A01 T03810078  RH  016%=      5-min Rain = 0
KREE 141824Z 25016KT 39/08 A3001 RMK A01 T03880077  RH  015%=      5-min Rain = 0
KREE 141825Z 24017KT 39/07 A3001 RMK A01 T03910074  RH  015%=      5-min Rain = 0
KREE 141826Z 24017KT 39/07 A3001 RMK A01 T03900072  RH  015%=      5-min Rain = 0
KREE 141827Z 24018KT 39/07 A3001 RMK A01 T03880073  RH  015%=      5-min Rain = 0
KREE 141828Z 24018KT 39/07 A30 RMK A01 T03870072  RH  015%=      5-min Rain = 0
KREE 141829Z 25017KT 39/08 A30 RMK A01 T03860076  RH  015%=      5-min Rain = 0
KREE 141830Z 25015KT 39/08 A3001 RMK A01 T03890075  RH  015%=      5-min Rain = 0
KREE 141831Z 23018G23KT 39/07 A30 RMK A01 T03880074  RH  015%=      5-min Rain = 0
KREE 141832Z 23020KT 39/07 A30 RMK A01 T03890073  RH  015%=      5-min Rain = 0
KREE 141833Z 24019KT 39/07 A30 RMK A01 T03890071  RH  014%=      5-min Rain = 0
KREE 141834Z 25018G23KT 39/07 A30 RMK A01 T03880073  RH  015%=      5-min Rain = 0
KREE 141835Z 24017KT 39/07 A30 RMK A01 T03870071  RH  015%=      5-min Rain = 0
KREE 141836Z 25015G21KT 39/07 A30 RMK A01 T03850074  RH  015%=      5-min Rain = 0
KREE 141837Z 24014G20KT 39/07 A3001 RMK A01 T03870072  RH  015%=      5-min Rain = 0
KREE 141838Z 25014G19KT 39/07 A3001 RMK A01 T03880072  RH  015%=      5-min Rain = 0
KREE 141839Z 24015KT 39/07 A30 RMK A01 T03890071  RH  014%=      5-min Rain = 0
KREE 141840Z 25018KT 39/07 A30 RMK A01 T03890070  RH  014%=      5-min Rain = 0
KREE 141841Z 24016KT 39/07 A30 RMK A01 T03850068  RH  015%=      5-min Rain = 0
KREE 141842Z 24016KT 38/07 A30 RMK A01 T03840066  RH  014%=      5-min Rain = 0
KREE 141843Z 23016KT 38/07 A30 RMK A01 T03830065  RH  014%=      5-min Rain = 0
KREE 141844Z 23014KT 38/07 A30 RMK A01 T03830065  RH  014%=      5-min Rain = 0
KREE 141845Z 23015KT 38/07 A30 RMK A01 T03840066  RH  014%=      5-min Rain = 0
KREE 141846Z 25018KT 38/07 A30 RMK A01 T03840071  RH  015%=      5-min Rain = 0
KREE 141847Z 25014KT 38/07 A30 RMK A01 T03840070  RH  015%=      5-min Rain = 0
KREE 141848Z 25016KT 38/07 A30 RMK A01 T03830072  RH  015%=      5-min Rain = 0
KREE 141849Z 25017KT 38/07 A30 RMK A01 T03840070  RH  015%=      5-min Rain = 0
KREE 141850Z 25015KT 38/07 A30 RMK A01 T03820070  RH  015%=      5-min Rain = 0
KREE 141851Z 24013G18KT 38/07 A30 RMK A01 T03820073  RH  015%=      5-min Rain = 0
KREE 141852Z 24015KT 39/07 A30 RMK A01 T03850072  RH  015%=      5-min Rain = 0
KREE 141853Z 24015KT 39/07 A30 RMK A01 T03860072  RH  015%=      5-min Rain = 0
KREE 141854Z 23016KT 38/07 A30 RMK A01 T03840068  RH  015%=      5-min Rain = 0
KREE 141855Z 24016KT 38/07 A30 RMK A01 T03810066  RH  015%=      5-min Rain = 0
KREE 141856Z 24013KT 38/07 A30 RMK A01 T03780070  RH  015%=      5-min Rain = 0
KREE 141857Z 24013KT 38/07 A30 RMK A01 T03770071  RH  015%=      5-min Rain = 0
KREE 141858Z 23012KT 38/07 A30 RMK A01 T03790070  RH  015%=      5-min Rain = 0
KREE 141859Z 25013KT 38/07 A30 RMK A01 T03820073  RH  015%=      5-min Rain = 0
KREE 141900Z 25012KT 38/07 A30 RMK A01 T03830073  RH  015%=      5-min Rain = 0
KREE 141901Z 26012KT 38/07 A30 RMK A01 T03820074  RH  015%=      5-min Rain = 0
KREE 141902Z 26013KT 39/07 A30 RMK A01 T03850073  RH  015%=      5-min Rain = 0
KREE 141903Z 26014KT 39/07 A30 RMK A01 T03860073  RH  015%=      5-min Rain = 0
KREE 141904Z 26013KT 39/08 A30 RMK A01 T03870076  RH  015%=      5-min Rain = 0
KREE 141905Z 24015KT 39/08 A30 RMK A01 T03900076  RH  015%=      5-min Rain = 0
KREE 141906Z 25014KT 39/08 A30 RMK A01 T03910079  RH  015%=      5-min Rain = 0
KREE 141907Z 25014KT 40/08 A30 RMK A01 T03950081  RH  015%=      5-min Rain = 0
KREE 141908Z 25015KT 40/08 A30 RMK A01 T03950082  RH  015%=      5-min Rain = 0
KREE 141909Z 25012KT 39/08 A30 RMK A01 T03930084  RH  015%=      5-min Rain = 0
KREE 141910Z 25013KT 39/08 A30 RMK A01 T03940082  RH  015%=      5-min Rain = 0
KREE 141911Z 24013KT 39/08 A30 RMK A01 T03900082  RH  016%=      5-min Rain = 0
KREE 141912Z 25011KT 39/09 A30 RMK A01 T03900086  RH  016%=      5-min Rain = 0
KREE 141913Z 24012KT 39/09 A30 RMK A01 T03910086  RH  016%=      5-min Rain = 0
KREE 141914Z 26012KT 39/08 A30 RMK A01 T03930083  RH  015%=      5-min Rain = 0
KREE 141915Z 24011KT 39/09 A30 RMK A01 T03920086  RH  016%=      5-min Rain = 0
KREE 141916Z 25012KT 39/09 A30 RMK A01 T03930085  RH  016%=      5-min Rain = 0
KREE 141917Z 26012KT 39/09 A30 RMK A01 T03910085  RH  016%=      5-min Rain = 0
KREE 141918Z 24011KT 39/08 A30 RMK A01 T03890082  RH  016%=      5-min Rain = 0
KREE 141919Z 25012KT 39/08 A30 RMK A01 T03870082  RH  016%=      5-min Rain = 0
KREE 141920Z 26011KT 39/08 A30 RMK A01 T03870083  RH  016%=      5-min Rain = 0
KREE 141921Z 24011KT 39/09 A30 RMK A01 T03880085  RH  016%=      5-min Rain = 0
KREE 141922Z 25009KT 39/08 A30 RMK A01 T03910084  RH  016%=      5-min Rain = 0
KREE 141923Z 25013KT 39/09 A2999 RMK A01 T03920085  RH  016%=      5-min Rain = 0
KREE 141924Z 25011KT 39/08 A2999 RMK A01 T03930083  RH  015%=      5-min Rain = 0
KREE 141925Z 22012KT 39/08 A2999 RMK A01 T03930083  RH  015%=      5-min Rain = 0
KREE 141926Z 23014KT 39/08 A2999 RMK A01 T03940082  RH  015%=      5-min Rain = 0
KREE 141927Z 22013KT 40/08 A2999 RMK A01 T03970081  RH  015%=      5-min Rain = 0
KREE 141928Z 22012KT 40/08 A2999 RMK A01 T03960082  RH  015%=      5-min Rain = 0
KREE 141929Z 22013KT 40/08 A2999 RMK A01 T03950079  RH  015%=      5-min Rain = 0
KREE 141930Z 21013KT 39/08 A2999 RMK A01 T03940080  RH  015%=      5-min Rain = 0
KREE 141931Z 21010G15KT 39/07 A2999 RMK A01 T03940073  RH  014%=      5-min Rain = 0
KREE 141932Z 22009KT 39/08 A2999 RMK A01 T03900075  RH  015%=      5-min Rain = 0
KREE 141933Z 23010G15KT 39/08 A2999 RMK A01 T03890075  RH  015%=      5-min Rain = 0
KREE 141934Z 25012KT 39/07 A2999 RMK A01 T03910074  RH  015%=      5-min Rain = 0
KREE 141935Z 24009KT 39/07 A2999 RMK A01 T03920072  RH  014%=      5-min Rain = 0
KREE 141936Z 24010KT 39/07 A2999 RMK A01 T03900072  RH  015%=      5-min Rain = 0
KREE 141937Z 25008KT 39/07 A2999 RMK A01 T03930074  RH  015%=      5-min Rain = 0
KREE 141938Z 24010KT 39/08 A2999 RMK A01 T03940075  RH  014%=      5-min Rain = 0
KREE 141939Z 24009KT 39/07 A2999 RMK A01 T03940074  RH  014%=      5-min Rain = 0
KREE 141940Z 24005G10KT 39/07 A2999 RMK A01 T03910072  RH  014%=      5-min Rain = 0
KREE 141941Z 23007G12KT 39/07 A2999 RMK A01 T03880074  RH  015%=      5-min Rain = 0
KREE 141942Z 23009KT 39/08 A2999 RMK A01 T03890075  RH  015%=      5-min Rain = 0
KREE 141943Z 24007KT 39/08 A2999 RMK A01 T03910076  RH  015%=      5-min Rain = 0
KREE 141944Z 24010KT 40/08 A2999 RMK A01 T03960076  RH  015%=      5-min Rain = 0
KREE 141945Z 22012KT 40/08 A2999 RMK A01 T03970076  RH  014%=      5-min Rain = 0
KREE 141946Z 22010KT 40/07 A2999 RMK A01 T03980074  RH  014%=      5-min Rain = 0
KREE 141947Z 23012KT 40/07 A2999 RMK A01 T03960074  RH  014%=      5-min Rain = 0
KREE 141948Z 23008KT 40/08 A2999 RMK A01 T03950076  RH  014%=      5-min Rain = 0
KREE 141949Z 21010KT 40/08 A2998 RMK A01 T03990081  RH  015%=      5-min Rain = 0
KREE 141950Z 20013G19KT 41/08 A2998 RMK A01 T04060077  RH  014%=      5-min Rain = 0
KREE 141951Z 20010KT 41/08 A2998 RMK A01 T04050075  RH  014%=      5-min Rain = 0
KREE 141952Z 20008KT 40/08 A2998 RMK A01 T04000075  RH  014%=      5-min Rain = 0
KREE 141953Z 22007KT 40/08 A2998 RMK A01 T04000080  RH  015%=      5-min Rain = 0
KREE 141954Z 22011KT 40/08 A2998 RMK A01 T04030077  RH  014%=      5-min Rain = 0
KREE 141955Z 22012KT 41/08 A2998 RMK A01 T04050077  RH  014%=      5-min Rain = 0
KREE 141956Z 21009KT 40/08 A2998 RMK A01 T04020078  RH  014%=      5-min Rain = 0
KREE 141957Z 23013KT 40/08 A2998 RMK A01 T04010082  RH  015%=      5-min Rain = 0
KREE 141958Z 22011KT 40/08 A2998 RMK A01 T04030084  RH  015%=      5-min Rain = 0
KREE 141959Z 22012KT 41/08 A2998 RMK A01 T04050082  RH  014%=      5-min Rain = 0
KREE 142000Z 25007KT 40/08 A2998 RMK A01 T04040081  RH  014%=      5-min Rain = 0
KREE 142001Z 22011KT 40/08 A2998 RMK A01 T04000081  RH  015%=      5-min Rain = 0
KREE 142002Z 21012KT 40/08 A2998 RMK A01 T03990078  RH  014%=      5-min Rain = 0
KREE 142003Z 21013KT 40/08 A2998 RMK A01 T04010079  RH  014%=      5-min Rain = 0
KREE 142004Z 21014KT 40/08 A2998 RMK A01 T04030079  RH  014%=      5-min Rain = 0
KREE 142005Z 20013KT 40/08 A2998 RMK A01 T04030075  RH  014%=      5-min Rain = 0
KREE 142006Z 20013KT 40/07 A2998 RMK A01 T04020068  RH  013%=      5-min Rain = 0
KREE 142007Z 20012KT 40/07 A2998 RMK A01 T04000069  RH  013%=      5-min Rain = 0
KREE 142008Z 19009KT 40/07 A2998 RMK A01 T04000068  RH  013%=      5-min Rain = 0
KREE 142009Z 18008KT 40/07 A2998 RMK A01 T03970069  RH  014%=      5-min Rain = 0
KREE 142010Z 19010KT 40/07 A2997 RMK A01 T04000072  RH  014%=      5-min Rain = 0
KREE 142011Z 19009KT 41/07 A2997 RMK A01 T04060068  RH  013%=      5-min Rain = 0
KREE 142012Z 17008G13KT 40/07 A2997 RMK A01 T04020067  RH  013%=      5-min Rain = 0
KREE 142013Z 21010KT 40/07 A2997 RMK A01 T04010070  RH  014%=      5-min Rain = 0
KREE 142014Z 24012KT 40/07 A2997 RMK A01 T04030068  RH  013%=      5-min Rain = 0
KREE 142015Z 23011G16KT 40/07 A2997 RMK A01 T04020068  RH  013%=      5-min Rain = 0
KREE 142016Z 23008KT 40/07 A2997 RMK A01 T04010066  RH  013%=      5-min Rain = 0
KREE 142017Z 23008KT 40/07 A2997 RMK A01 T04000067  RH  013%=      5-min Rain = 0
KREE 142018Z 20006KT 40/07 A2997 RMK A01 T03990067  RH  013%=      5-min Rain = 0
KREE 142019Z 23011KT 40/07 A2997 RMK A01 T03990068  RH  013%=      5-min Rain = 0
KREE 142020Z 22010KT 40/07 A2997 RMK A01 T04000066  RH  013%=      5-min Rain = 0
KREE 142021Z 22010KT 40/06 A2997 RMK A01 T04000064  RH  013%=      5-min Rain = 0
KREE 142022Z 19005KT 40/06 A2997 RMK A01 T03970061  RH  013%=      5-min Rain = 0
KREE 142023Z 23007KT 39/06 A2997 RMK A01 T03940063  RH  013%=      5-min Rain = 0
KREE 142024Z 24010KT 39/06 A2997 RMK A01 T03940061  RH  013%=      5-min Rain = 0
KREE 142025Z 22004G10KT 39/06 A2997 RMK A01 T03930062  RH  013%=      5-min Rain = 0
KREE 142026Z 21006KT 39/06 A2997 RMK A01 T03930063  RH  013%=      5-min Rain = 0
KREE 142027Z 19009KT 40/06 A2997 RMK A01 T03960064  RH  013%=      5-min Rain = 0
KREE 142028Z 20012KT 40/06 A2997 RMK A01 T03990062  RH  013%=      5-min Rain = 0
KREE 142029Z 19013KT 40/06 A2997 RMK A01 T04020060  RH  013%=      5-min Rain = 0
KREE 142030Z 20010KT 40/06 A2997 RMK A01 T04030059  RH  012%=      5-min Rain = 0
KREE 142031Z 19010G15KT 40/06 A2996 RMK A01 T04020061  RH  013%=      5-min Rain = 0
KREE 142032Z 18011KT 40/06 A2996 RMK A01 T03990060  RH  013%=      5-min Rain = 0
KREE 142033Z 18007G12KT 40/06 A2996 RMK A01 T03950060  RH  013%=      5-min Rain = 0
KREE 142034Z 19003KT 39/06 A2996 RMK A01 T03920060  RH  013%=      5-min Rain = 0
KREE 142035Z 21005KT 39/06 A2996 RMK A01 T03910064  RH  014%=      5-min Rain = 0
KREE 142036Z 18003KT 39/06 A2996 RMK A01 T03920063  RH  014%=      5-min Rain = 0
KREE 142037Z 18005G11KT 40/06 A2996 RMK A01 T03970064  RH  013%=      5-min Rain = 0
KREE 142038Z 26007KT 40/07 A2996 RMK A01 T04000067  RH  013%=      5-min Rain = 0
KREE 142039Z 25008KT 40/07 A2996 RMK A01 T04010066  RH  013%=      5-min Rain = 0
KREE 142040Z 25008KT 40/06 A2996 RMK A01 T04010062  RH  013%=      5-min Rain = 0
KREE 142041Z 24005KT 40/06 A2996 RMK A01 T03980063  RH  013%=      5-min Rain = 0
KREE 142042Z 20005KT 40/06 A2996 RMK A01 T03980064  RH  013%=      5-min Rain = 0
KREE 142043Z 19004KT 40/06 A2996 RMK A01 T04000062  RH  013%=      5-min Rain = 0
KREE 142044Z 22007KT 40/07 A2995 RMK A01 T04000066  RH  013%=      5-min Rain = 0
KREE 142045Z 21005KT 40/07 A2995 RMK A01 T04020068  RH  013%=      5-min Rain = 0
KREE 142046Z 20007KT 40/07 A2995 RMK A01 T04030072  RH  014%=      5-min Rain = 0
KREE 142047Z 20011KT 41/08 A2995 RMK A01 T04050075  RH  014%=      5-min Rain = 0
KREE 142048Z 21012KT 41/08 A2995 RMK A01 T04070078  RH  014%=      5-min Rain = 0
KREE 142049Z 22011KT 41/08 A2995 RMK A01 T04080080  RH  014%=      5-min Rain = 0
KREE 142050Z 23014G19KT 41/08 A2995 RMK A01 T04090076  RH  013%=      5-min Rain = 0
KREE 142051Z 23015G20KT 41/08 A2995 RMK A01 T04070075  RH  014%=      5-min Rain = 0
KREE 142052Z 21015KT 40/08 A2995 RMK A01 T04010076  RH  014%=      5-min Rain = 0
KREE 142053Z 21015KT 40/08 A2995 RMK A01 T03990076  RH  014%=      5-min Rain = 0
KREE 142054Z 24016G21KT 40/08 A2995 RMK A01 T03990076  RH  014%=      5-min Rain = 0
KREE 142055Z 22014G19KT 40/08 A2995 RMK A01 T03980075  RH  014%=      5-min Rain = 0
KREE 142056Z 23015KT 40/08 A2995 RMK A01 T04010078  RH  014%=      5-min Rain = 0
KREE 142057Z 23015G20KT 40/07 A2995 RMK A01 T04020074  RH  014%=      5-min Rain = 0
KREE 142058Z 24015G21KT 40/08 A2995 RMK A01 T03990078  RH  014%=      5-min Rain = 0
KREE 142059Z 25016KT 40/08 A2995 RMK A01 T03980083  RH  015%=      5-min Rain = 0
KREE 142100Z 25010G15KT 40/08 A2995 RMK A01 T03960081  RH  015%=      5-min Rain = 0
KREE 142101Z 26012G17KT 40/08 A2995 RMK A01 T03950079  RH  015%=      5-min Rain = 0
KREE 142102Z 26013KT 40/08 A2995 RMK A01 T03950077  RH  015%=      5-min Rain = 0
KREE 142103Z 25015KT 40/08 A2995 RMK A01 T03950078  RH  015%=      5-min Rain = 0
KREE 142104Z 25015G26KT 40/08 A2995 RMK A01 T03950077  RH  015%=      5-min Rain = 0
KREE 142105Z 25016G21KT 40/08 A2995 RMK A01 T03970075  RH  014%=      5-min Rain = 0
KREE 142106Z 25015G21KT 40/08 A2995 RMK A01 T03970076  RH  014%=      5-min Rain = 0
KREE 142107Z 25015KT 40/08 A2995 RMK A01 T04020077  RH  014%=      5-min Rain = 0
KREE 142108Z 26017KT 41/08 A2994 RMK A01 T04060077  RH  014%=      5-min Rain = 0
KREE 142109Z 25015KT 40/07 A2995 RMK A01 T04040072  RH  013%=      5-min Rain = 0
KREE 142110Z 24015G20KT 40/07 A2995 RMK A01 T03980074  RH  014%=      5-min Rain = 0
KREE 142111Z 25012G20KT 40/07 A2995 RMK A01 T03960073  RH  014%=      5-min Rain = 0
KREE 142112Z 25013G18KT 40/07 A2995 RMK A01 T03950072  RH  014%=      5-min Rain = 0
KREE 142113Z 25016KT 39/07 A2995 RMK A01 T03940074  RH  014%=      5-min Rain = 0
KREE 142114Z 28013KT 39/07 A2995 RMK A01 T03930073  RH  014%=      5-min Rain = 0
KREE 142115Z 25009KT 39/08 A2995 RMK A01 T03910075  RH  015%=      5-min Rain = 0
KREE 142116Z 24007KT 39/07 A2995 RMK A01 T03930074  RH  014%=      5-min Rain = 0
KREE 142117Z 24007KT 39/07 A2995 RMK A01 T03920074  RH  015%=      5-min Rain = 0
KREE 142118Z 24011G18KT 39/08 A2995 RMK A01 T03920075  RH  015%=      5-min Rain = 0
KREE 142119Z 20014KT 40/07 A2995 RMK A01 T03960072  RH  014%=      5-min Rain = 0
KREE 142120Z 21011KT 40/07 A2995 RMK A01 T03970072  RH  014%=      5-min Rain = 0
KREE 142121Z 21011KT 40/07 A2995 RMK A01 T03990072  RH  014%=      5-min Rain = 0
KREE 142122Z 23011KT 40/07 A2995 RMK A01 T03990073  RH  014%=      5-min Rain = 0
KREE 142123Z 23012KT 40/07 A2995 RMK A01 T04010073  RH  014%=      5-min Rain = 0
KREE 142124Z 24010KT 40/07 A2995 RMK A01 T04000070  RH  014%=      5-min Rain = 0
KREE 142125Z 24009KT 40/07 A2995 RMK A01 T03960071  RH  014%=      5-min Rain = 0
KREE 142126Z 23011KT 40/07 A2995 RMK A01 T03960071  RH  014%=      5-min Rain = 0
KREE 142127Z 20012KT 40/07 A2995 RMK A01 T03990068  RH  013%=      5-min Rain = 0
KREE 142128Z 21011KT 40/07 A2995 RMK A01 T04020067  RH  013%=      5-min Rain = 0
KREE 142129Z 22013KT 40/07 A2995 RMK A01 T04030067  RH  013%=      5-min Rain = 0
KREE 142130Z 21013KT 40/07 A2995 RMK A01 T04010065  RH  013%=      5-min Rain = 0
KREE 142131Z 20012KT 40/07 A2995 RMK A01 T03970065  RH  013%=      5-min Rain = 0
KREE 142132Z 21013G18KT 40/06 A2994 RMK A01 T03970064  RH  013%=      5-min Rain = 0
KREE 142133Z 21013G18KT 40/07 A2994 RMK A01 T03960065  RH  013%=      5-min Rain = 0
KREE 142134Z 22012KT 40/06 A2995 RMK A01 T03980063  RH  013%=      5-min Rain = 0
KREE 142135Z 22012G17KT 40/07 A2994 RMK A01 T03970067  RH  014%=      5-min Rain = 0
KREE 142136Z 22013KT 39/07 A2994 RMK A01 T03940067  RH  014%=      5-min Rain = 0
KREE 142137Z 23009KT 39/07 A2995 RMK A01 T03930066  RH  014%=      5-min Rain = 0
KREE 142138Z 23009KT 39/07 A2994 RMK A01 T03930074  RH  014%=      5-min Rain = 0
KREE 142139Z 19010KT 40/07 A2994 RMK A01 T03960074  RH  014%=      5-min Rain = 0
KREE 142140Z 19009KT 40/07 A2994 RMK A01 T03990069  RH  014%=      5-min Rain = 0
KREE 142141Z 17010KT 40/07 A2994 RMK A01 T04000069  RH  014%=      5-min Rain = 0
KREE 142142Z 17010KT 40/07 A2994 RMK A01 T03990070  RH  014%=      5-min Rain = 0
KREE 142143Z 20009KT 40/07 A2994 RMK A01 T03990072  RH  014%=      5-min Rain = 0
KREE 142144Z 19007G13KT 40/07 A2994 RMK A01 T04020073  RH  014%=      5-min Rain = 0
KREE 142145Z 20010KT 40/07 A2994 RMK A01 T04020068  RH  013%=      5-min Rain = 0
KREE 142146Z 19011KT 40/07 A2994 RMK A01 T03970067  RH  013%=      5-min Rain = 0
KREE 142147Z 21010G15KT 40/07 A2994 RMK A01 T03960074  RH  014%=      5-min Rain = 0
KREE 142148Z 22010G16KT 40/08 A2994 RMK A01 T03950076  RH  015%=      5-min Rain = 0
KREE 142149Z 19014KT 40/07 A2994 RMK A01 T03980070  RH  014%=      5-min Rain = 0
KREE 142150Z 18015KT 40/07 A2994 RMK A01 T04010068  RH  013%=      5-min Rain = 0
KREE 142151Z 17014KT 40/07 A2994 RMK A01 T04010070  RH  013%=      5-min Rain = 0
KREE 142152Z 16013KT 40/07 A2994 RMK A01 T04000069  RH  014%=      5-min Rain = 0
KREE 142153Z 16011KT 40/07 A2994 RMK A01 T03990070  RH  014%=      5-min Rain = 0
KREE 142154Z 17009KT 40/07 A2994 RMK A01 T03970071  RH  014%=      5-min Rain = 0
KREE 142155Z 15008KT 40/07 A2994 RMK A01 T03980070  RH  014%=      5-min Rain = 0
KREE 142156Z 17006KT 40/07 A2994 RMK A01 T03980069  RH  014%=      5-min Rain = 0
KREE 142157Z 16005KT 40/07 A2994 RMK A01 T03960070  RH  014%=      5-min Rain = 0
KREE 142158Z 20008KT 40/07 A2994 RMK A01 T03960074  RH  014%=      5-min Rain = 0
KREE 142159Z 22009KT 40/08 A2994 RMK A01 T03980076  RH  014%=      5-min Rain = 0
KREE 142200Z 21009G17KT 40/08 A2994 RMK A01 T03980076  RH  014%=      5-min Rain = 0
KREE 142201Z 17012KT 40/07 A2994 RMK A01 T03990070  RH  014%=      5-min Rain = 0
KREE 142202Z 16010KT 40/07 A2993 RMK A01 T03990068  RH  014%=      5-min Rain = 0
KREE 142203Z 16011KT 40/07 A2993 RMK A01 T03960066  RH  013%=      5-min Rain = 0
KREE 142204Z 16015G21KT 40/07 A2993 RMK A01 T03960068  RH  014%=      5-min Rain = 0
KREE 142205Z 19016G22KT 40/07 A2993 RMK A01 T03980072  RH  014%=      5-min Rain = 0
KREE 142206Z 21014KT 40/07 A2993 RMK A01 T04020074  RH  014%=      5-min Rain = 0
KREE 142207Z 20013G18KT 40/08 A2993 RMK A01 T04030076  RH  014%=      5-min Rain = 0
KREE 142208Z 20016KT 41/08 A2993 RMK A01 T04060075  RH  014%=      5-min Rain = 0
KREE 142209Z 20015KT 41/08 A2993 RMK A01 T04050075  RH  014%=      5-min Rain = 0
KREE 142210Z 19016KT 40/07 A2993 RMK A01 T04030074  RH  014%=      5-min Rain = 0
KREE 142211Z 20016G23KT 40/07 A2993 RMK A01 T03980073  RH  014%=      5-min Rain = 0
KREE 142212Z 21013KT 40/07 A2993 RMK A01 T03960074  RH  014%=      5-min Rain = 0
KREE 142213Z 23013G18KT 40/08 A2993 RMK A01 T03990077  RH  014%=      5-min Rain = 0
KREE 142214Z 22011KT 40/08 A2993 RMK A01 T04010076  RH  014%=      5-min Rain = 0
KREE 142215Z 21013KT 40/08 A2993 RMK A01 T03980075  RH  014%=      5-min Rain = 0
KREE 142216Z 22013KT 40/07 A2993 RMK A01 T03990070  RH  014%=      5-min Rain = 0
KREE 142217Z 21014KT 40/07 A2993 RMK A01 T04000072  RH  014%=      5-min Rain = 0
KREE 142218Z 20012KT 40/07 A2993 RMK A01 T04020071  RH  014%=      5-min Rain = 0
KREE 142219Z 19014KT 40/07 A2993 RMK A01 T04020071  RH  014%=      5-min Rain = 0
KREE 142220Z 19017KT 40/07 A2993 RMK A01 T04010071  RH  014%=      5-min Rain = 0
KREE 142221Z 21014KT 40/07 A2993 RMK A01 T04000071  RH  014%=      5-min Rain = 0
KREE 142222Z 21012KT 40/07 A2993 RMK A01 T03990072  RH  014%=      5-min Rain = 0
KREE 142223Z 20011KT 40/07 A2993 RMK A01 T03970072  RH  014%=      5-min Rain = 0
KREE 142224Z 20010KT 40/07 A2993 RMK A01 T03970070  RH  014%=      5-min Rain = 0
KREE 142225Z 21010KT 40/07 A2993 RMK A01 T03950069  RH  014%=      5-min Rain = 0
KREE 142226Z 21010KT 40/07 A2993 RMK A01 T03950069  RH  014%=      5-min Rain = 0
KREE 142227Z 19010KT 40/07 A2993 RMK A01 T03960071  RH  014%=      5-min Rain = 0
KREE 142228Z 19011KT 40/07 A2993 RMK A01 T03970072  RH  014%=      5-min Rain = 0
KREE 142229Z 20010KT 40/07 A2993 RMK A01 T03990072  RH  014%=      5-min Rain = 0
KREE 142230Z 19013G18KT 40/07 A2993 RMK A01 T04010073  RH  014%=      5-min Rain = 0
KREE 142231Z 20015KT 40/07 A2993 RMK A01 T04030071  RH  013%=      5-min Rain = 0
KREE 142232Z 20011KT 40/07 A2993 RMK A01 T04000070  RH  014%=      5-min Rain = 0
KREE 142233Z 21011KT 40/07 A2993 RMK A01 T03970070  RH  014%=      5-min Rain = 0
KREE 142234Z 20011KT 40/07 A2993 RMK A01 T03960069  RH  014%=      5-min Rain = 0
KREE 142235Z 18006KT 39/07 A2993 RMK A01 T03940068  RH  014%=      5-min Rain = 0
KREE 142236Z 18008KT 39/07 A2993 RMK A01 T03920069  RH  014%=      5-min Rain = 0
KREE 142237Z 19009KT 39/07 A2993 RMK A01 T03930071  RH  014%=      5-min Rain = 0
KREE 142238Z 19012KT 40/07 A2993 RMK A01 T03970071  RH  014%=      5-min Rain = 0
KREE 142239Z 20015KT 40/07 A2993 RMK A01 T03980071  RH  014%=      5-min Rain = 0
KREE 142240Z 21011G16KT 40/07 A2993 RMK A01 T03970069  RH  014%=      5-min Rain = 0
KREE 142241Z 22008KT 39/07 A2993 RMK A01 T03940070  RH  014%=      5-min Rain = 0
KREE 142242Z 20012KT 39/07 A2993 RMK A01 T03920069  RH  014%=      5-min Rain = 0
KREE 142243Z 22013KT 39/07 A2993 RMK A01 T03940069  RH  014%=      5-min Rain = 0
KREE 142244Z 25014KT 40/07 A2993 RMK A01 T03950069  RH  014%=      5-min Rain = 0
KREE 142245Z 24009KT 39/07 A2993 RMK A01 T03930067  RH  014%=      5-min Rain = 0
KREE 142246Z 24009KT 39/07 A2993 RMK A01 T03890068  RH  014%=      5-min Rain = 0
KREE 142247Z 24009KT 39/07 A2993 RMK A01 T03910069  RH  014%=      5-min Rain = 0
KREE 142248Z 25012KT 39/07 A2993 RMK A01 T03930068  RH  014%=      5-min Rain = 0
KREE 142249Z 23011G16KT 40/07 A2993 RMK A01 T03950071  RH  014%=      5-min Rain = 0
KREE 142250Z 21014KT 40/07 A2993 RMK A01 T03980070  RH  014%=      5-min Rain = 0
KREE 142251Z 22013KT 40/07 A2993 RMK A01 T03950067  RH  014%=      5-min Rain = 0
KREE 142252Z 21015KT 39/07 A2993 RMK A01 T03930068  RH  014%=      5-min Rain = 0
KREE 142253Z 21011KT 39/07 A2993 RMK A01 T03910068  RH  014%=      5-min Rain = 0
KREE 142254Z 20013KT 39/07 A2993 RMK A01 T03920069  RH  014%=      5-min Rain = 0
KREE 142255Z 19012KT 39/07 A2993 RMK A01 T03930067  RH  014%=      5-min Rain = 0
KREE 142256Z 20012KT 39/07 A2993 RMK A01 T03930067  RH  014%=      5-min Rain = 0
KREE 142257Z 19011KT 39/07 A2993 RMK A01 T03930067  RH  014%=      5-min Rain = 0
KREE 142258Z 20011KT 39/07 A2993 RMK A01 T03920067  RH  014%=      5-min Rain = 0
KREE 142259Z 20010KT 39/07 A2993 RMK A01 T03920068  RH  014%=      5-min Rain = 0
KREE 142300Z 19011KT 39/07 A2993 RMK A01 T03920068  RH  014%=      5-min Rain = 0
KREE 142301Z 20009KT 39/07 A2993 RMK A01 T03910070  RH  014%=      5-min Rain = 0
KREE 142302Z 20014KT 39/07 A2993 RMK A01 T03910071  RH  014%=      5-min Rain = 0
KREE 142303Z 18013KT 39/07 A2993 RMK A01 T03930069  RH  014%=      5-min Rain = 0
KREE 142304Z 19011KT 39/07 A2993 RMK A01 T03930069  RH  014%=      5-min Rain = 0
KREE 142305Z 19014KT 39/07 A2993 RMK A01 T03930069  RH  014%=      5-min Rain = 0
KREE 142306Z 20011KT 39/07 A2993 RMK A01 T03910068  RH  014%=      5-min Rain = 0
KREE 142307Z 19014KT 39/07 A2993 RMK A01 T03920068  RH  014%=      5-min Rain = 0
KREE 142308Z 19013KT 39/07 A2993 RMK A01 T03930066  RH  014%=      5-min Rain = 0
KREE 142309Z 19014KT 39/07 A2993 RMK A01 T03920068  RH  014%=      5-min Rain = 0
KREE 142310Z 21013KT 39/07 A2994 RMK A01 T03920067  RH  014%=      5-min Rain = 0
KREE 142311Z 22011KT 39/07 A2994 RMK A01 T03930065  RH  014%=      5-min Rain = 0
KREE 142312Z 22011KT 39/07 A2994 RMK A01 T03920068  RH  014%=      5-min Rain = 0
KREE 142313Z 21012KT 39/07 A2993 RMK A01 T03920069  RH  014%=      5-min Rain = 0
KREE 142314Z 20013KT 39/07 A2993 RMK A01 T03920069  RH  014%=      5-min Rain = 0
KREE 142315Z 21012KT 39/07 A2994 RMK A01 T03920070  RH  014%=      5-min Rain = 0
KREE 142316Z 20009KT 39/07 A2993 RMK A01 T03900070  RH  014%=      5-min Rain = 0
KREE 142317Z 19011KT 39/07 A2993 RMK A01 T03900070  RH  014%=      5-min Rain = 0
KREE 142318Z 19010KT 39/07 A2994 RMK A01 T03910070  RH  014%=      5-min Rain = 0
KREE 142319Z 22011G16KT 39/07 A2994 RMK A01 T03920068  RH  014%=      5-min Rain = 0
KREE 142320Z 22010G15KT 39/07 A2994 RMK A01 T03920065  RH  014%=      5-min Rain = 0
KREE 142321Z 21009KT 39/07 A2994 RMK A01 T03910065  RH  014%=      5-min Rain = 0
KREE 142322Z 20006KT 39/06 A2994 RMK A01 T03900063  RH  014%=      5-min Rain = 0
KREE 142323Z 19006KT 39/06 A2994 RMK A01 T03890064  RH  014%=      5-min Rain = 0
KREE 142324Z 23006KT 39/07 A2993 RMK A01 T03890067  RH  014%=      5-min Rain = 0
KREE 142325Z 20006KT 39/07 A2993 RMK A01 T03900067  RH  014%=      5-min Rain = 0
KREE 142326Z 21007KT 39/07 A2993 RMK A01 T03910068  RH  014%=      5-min Rain = 0
KREE 142327Z 20007G12KT 39/07 A2993 RMK A01 T03900068  RH  014%=      5-min Rain = 0
KREE 142328Z 19009KT 39/07 A2993 RMK A01 T03900069  RH  014%=      5-min Rain = 0
KREE 142329Z 21009KT 39/07 A2993 RMK A01 T03920069  RH  014%=      5-min Rain = 0
KREE 142330Z 21007KT 39/07 A2993 RMK A01 T03920068  RH  014%=      5-min Rain = 0
KREE 142331Z 19010KT 39/07 A2993 RMK A01 T03920070  RH  014%=      5-min Rain = 0
KREE 142332Z 19010KT 39/07 A2993 RMK A01 T03920071  RH  014%=      5-min Rain = 0
KREE 142333Z 21012KT 39/07 A2993 RMK A01 T03930069  RH  014%=      5-min Rain = 0
KREE 142334Z 20011KT 39/07 A2993 RMK A01 T03930066  RH  014%=      5-min Rain = 0
KREE 142335Z 19009KT 39/07 A2993 RMK A01 T03920065  RH  014%=      5-min Rain = 0
KREE 142336Z 19008KT 39/06 A2993 RMK A01 T03910064  RH  014%=      5-min Rain = 0
KREE 142337Z 19008KT 39/06 A2993 RMK A01 T03900064  RH  014%=      5-min Rain = 0
KREE 142338Z 20010KT 39/07 A2993 RMK A01 T03900066  RH  014%=      5-min Rain = 0
KREE 142339Z 20011KT 39/07 A2993 RMK A01 T03920065  RH  014%=      5-min Rain = 0
KREE 142340Z 20010KT 39/06 A2993 RMK A01 T03920063  RH  013%=      5-min Rain = 0
KREE 142341Z 19007KT 39/07 A2993 RMK A01 T03900065  RH  014%=      5-min Rain = 0
KREE 142342Z 20007KT 39/07 A2993 RMK A01 T03900066  RH  014%=      5-min Rain = 0
KREE 142343Z 20008KT 39/07 A2993 RMK A01 T03900068  RH  014%=      5-min Rain = 0
KREE 142344Z 19009KT 39/07 A2993 RMK A01 T03910069  RH  014%=      5-min Rain = 0
KREE 142345Z 18009KT 39/07 A2993 RMK A01 T03910068  RH  014%=      5-min Rain = 0
KREE 142346Z 17010KT 39/07 A2993 RMK A01 T03900068  RH  014%=      5-min Rain = 0
KREE 142347Z 20013KT 39/07 A2993 RMK A01 T03900070  RH  014%=      5-min Rain = 0
KREE 142348Z 21011KT 39/07 A2993 RMK A01 T03880070  RH  014%=      5-min Rain = 0
KREE 142349Z 20012KT 39/07 A2994 RMK A01 T03870070  RH  015%=      5-min Rain = 0
KREE 142350Z 19010KT 39/07 A2994 RMK A01 T03860068  RH  014%=      5-min Rain = 0
KREE 142351Z 19011KT 39/07 A2994 RMK A01 T03850069  RH  015%=      5-min Rain = 0
KREE 142352Z 20012KT 39/07 A2994 RMK A01 T03850069  RH  015%=      5-min Rain = 0
KREE 142353Z 20013KT 39/07 A2994 RMK A01 T03850067  RH  014%=      5-min Rain = 0
KREE 142354Z 20014KT 39/07 A2994 RMK A01 T03850068  RH  015%=      5-min Rain = 0
KREE 142355Z 19012KT 38/07 A2994 RMK A01 T03840068  RH  015%=      5-min Rain = 0
KREE 142356Z 19011KT 38/07 A2994 RMK A01 T03840067  RH  015%=      5-min Rain = 0
KREE 142357Z 18010KT 39/07 A2994 RMK A01 T03850068  RH  015%=      5-min Rain = 0
KREE 142358Z 18008KT 39/07 A2994 RMK A01 T03860068  RH  014%=      5-min Rain = 0
KREE 142359Z 19012KT 39/07 A2994 RMK A01 T03870069  RH  014%=      5-min Rain = 0
KREE 150000Z 19011KT 39/07 A2994 RMK A01 T03870070  RH  015%=      5-min Rain = 0
KREE 150001Z 19011KT 39/07 A2994 RMK A01 T03870068  RH  014%=      5-min Rain = 0
KREE 150002Z 19009KT 39/07 A2994 RMK A01 T03870068  RH  014%=      5-min Rain = 0
KREE 150003Z 19008KT 39/07 A2994 RMK A01 T03880070  RH  015%=      5-min Rain = 0
KREE 150004Z 18009KT 39/07 A2994 RMK A01 T03890071  RH  015%=      5-min Rain = 0
KREE 150005Z 19012KT 39/07 A2994 RMK A01 T03910070  RH  014%=      5-min Rain = 0
KREE 150006Z 19011KT 39/07 A2994 RMK A01 T03900067  RH  014%=      5-min Rain = 0
KREE 150007Z 18010KT 39/07 A2994 RMK A01 T03870068  RH  014%=      5-min Rain = 0
KREE 150008Z 18010KT 39/07 A2994 RMK A01 T03860067  RH  014%=      5-min Rain = 0
KREE 150009Z 17008KT 39/07 A2995 RMK A01 T03860066  RH  014%=      5-min Rain = 0
KREE 150010Z 18008KT 39/07 A2995 RMK A01 T03850067  RH  014%=      5-min Rain = 0
KREE 150011Z 19009KT 39/07 A2995 RMK A01 T03860069  RH  015%=      5-min Rain = 0
KREE 150012Z 17007KT 39/07 A2995 RMK A01 T03880070  RH  014%=      5-min Rain = 0
KREE 150013Z 16006KT 39/07 A2995 RMK A01 T03900068  RH  014%=      5-min Rain = 0
KREE 150014Z 16005KT 39/07 A2996 RMK A01 T03910068  RH  014%=      5-min Rain = 0
KREE 150015Z 15003KT 39/07 A2996 RMK A01 T03900067  RH  014%=      5-min Rain = 0
KREE 150016Z 08008G15KT 39/07 A2996 RMK A01 T03890073  RH  015%=      5-min Rain = 0
KREE 150017Z 07013KT 38/11 A2997 RMK A01 T03800112  RH  020%=      5-min Rain = 0
KREE 150018Z 09014KT 37/12 A2997 RMK A01 T03650115  RH  022%=      5-min Rain = 0
KREE 150019Z 08016KT 36/12 A2997 RMK A01 T03570116  RH  023%=      5-min Rain = 0
KREE 150020Z 09011KT 35/12 A2997 RMK A01 T03500116  RH  024%=      5-min Rain = 0
KREE 150021Z 08012KT 35/12 A2996 RMK A01 T03460118  RH  025%=      5-min Rain = 0
KREE 150022Z 09018G23KT 35/11 A2997 RMK A01 T03450114  RH  025%=      5-min Rain = 0
KREE 150023Z 11020KT 35/11 A2997 RMK A01 T03460112  RH  024%=      5-min Rain = 0
KREE 150024Z 11018KT 35/11 A2997 RMK A01 T03460114  RH  024%=      5-min Rain = 0
KREE 150025Z 11018KT 35/12 A2997 RMK A01 T03460115  RH  025%=      5-min Rain = 0
KREE 150026Z 11013KT 34/12 A2997 RMK A01 T03440115  RH  025%=      5-min Rain = 0
KREE 150027Z 12013KT 34/11 A2997 RMK A01 T03440114  RH  025%=      5-min Rain = 0
KREE 150028Z 11014KT 34/12 A2997 RMK A01 T03440115  RH  025%=      5-min Rain = 0
KREE 150029Z 12013KT 34/12 A2997 RMK A01 T03440115  RH  025%=      5-min Rain = 0
KREE 150030Z 11015KT 34/11 A2997 RMK A01 T03430113  RH  025%=      5-min Rain = 0
KREE 150031Z 10018G23KT 34/11 A2997 RMK A01 T03440110  RH  024%=      5-min Rain = 0
KREE 150032Z 09021G28KT 34/11 A2997 RMK A01 T03440110  RH  024%=      5-min Rain = 0
KREE 150033Z 09025G30KT 34/11 A2998 RMK A01 T03440110  RH  024%=      5-min Rain = 0
KREE 150034Z 09025G30KT 34/11 A2998 RMK A01 T03430109  RH  024%=      5-min Rain = 0
KREE 150035Z 09024G30KT 34/11 A2998 RMK A01 T03420107  RH  024%=      5-min Rain = 0
KREE 150036Z 09017KT 34/11 A2998 RMK A01 T03420107  RH  024%=      5-min Rain = 0
KREE 150037Z 09019G31KT 34/10 A2998 RMK A01 T03430104  RH  023%=      5-min Rain = 0
KREE 150038Z 09025G30KT 34/10 A2998 RMK A01 T03430101  RH  023%=      5-min Rain = 0
KREE 150039Z 09023G30KT 34/10 A2998 RMK A01 T03420103  RH  023%=      5-min Rain = 0
KREE 150040Z 09026G31KT 34/10 A2999 RMK A01 T03410103  RH  023%=      5-min Rain = 0
KREE 150041Z 09026G31KT 34/10 A2999 RMK A01 T03410103  RH  023%=      5-min Rain = 0
KREE 150042Z 09024G29KT 34/10 A2999 RMK A01 T03400102  RH  023%=      5-min Rain = 0
KREE 150043Z 10024KT 34/10 A2999 RMK A01 T03400101  RH  023%=      5-min Rain = 0
KREE 150044Z 09023G28KT 34/10 A2999 RMK A01 T03400100  RH  023%=      5-min Rain = 0
KREE 150045Z 10022KT 34/10 A2999 RMK A01 T03400100  RH  023%=      5-min Rain = 0
KREE 150046Z 10022KT 34/10 A2999 RMK A01 T03400100  RH  023%=      5-min Rain = 0
KREE 150047Z 10019KT 34/10 A2999 RMK A01 T03390099  RH  023%=      5-min Rain = 0
KREE 150048Z 10023G30KT 34/10 A2999 RMK A01 T03390098  RH  023%=      5-min Rain = 0
KREE 150049Z 09023KT 34/10 A2999 RMK A01 T03390096  RH  023%=      5-min Rain = 0
KREE 150050Z 10028G36KT 34/10 A2999 RMK A01 T03390095  RH  023%=      5-min Rain = 0
KREE 150051Z 09030G36KT 34/09 A2999 RMK A01 T03380094  RH  022%=      5-min Rain = 0
KREE 150052Z 09028G33KT 34/10 A2999 RMK A01 T03380095  RH  023%=      5-min Rain = 0
KREE 150053Z 09024G30KT 34/09 A2999 RMK A01 T03370094  RH  023%=      5-min Rain = 0
KREE 150054Z 09025G30KT 34/10 A2999 RMK A01 T03370095  RH  023%=      5-min Rain = 0
KREE 150055Z 09027KT 34/10 A2999 RMK A01 T03370096  RH  023%=      5-min Rain = 0
KREE 150056Z 09025G31KT 34/10 A2999 RMK A01 T03360095  RH  023%=      5-min Rain = 0
KREE 150057Z 09025G31KT 34/10 A2999 RMK A01 T03350096  RH  023%=      5-min Rain = 0
KREE 150058Z 09023G29KT 33/10 A2999 RMK A01 T03340096  RH  023%=      5-min Rain = 0
KREE 150059Z 09023G28KT 33/10 A2999 RMK A01 T03340097  RH  023%=      5-min Rain = 0
KREE 150100Z 09020G28KT 33/10 A2999 RMK A01 T03330096  RH  023%=      5-min Rain = 0
KREE 150101Z 09023G32KT 33/10 A2999 RMK A01 T03320096  RH  023%=      5-min Rain = 0
KREE 150102Z 09024G30KT 33/10 A30 RMK A01 T03320097  RH  024%=      5-min Rain = 0
KREE 150103Z 09020G25KT 33/10 A2999 RMK A01 T03310097  RH  024%=      5-min Rain = 0
KREE 150104Z 09022G27KT 33/10 A2999 RMK A01 T03310097  RH  024%=      5-min Rain = 0
KREE 150105Z 09020KT 33/10 A2999 RMK A01 T03300097  RH  024%=      5-min Rain = 0
KREE 150106Z 08020KT 33/10 A2999 RMK A01 T03300098  RH  024%=      5-min Rain = 0
KREE 150107Z 09019G25KT 33/10 A2999 RMK A01 T03290098  RH  024%=      5-min Rain = 0
KREE 150108Z 08025G30KT 33/10 A30 RMK A01 T03290098  RH  024%=      5-min Rain = 0
KREE 150109Z 08024G29KT 33/10 A30 RMK A01 T03290099  RH  024%=      5-min Rain = 0
KREE 150110Z 08019G25KT 33/10 A30 RMK A01 T03280099  RH  024%=      5-min Rain = 0
KREE 150111Z 09017G23KT 33/10 A30 RMK A01 T03280100  RH  025%=      5-min Rain = 0
KREE 150112Z 09022G29KT 33/10 A30 RMK A01 T03280100  RH  025%=      5-min Rain = 0
KREE 150113Z 09022G28KT 33/10 A30 RMK A01 T03270100  RH  025%=      5-min Rain = 0
KREE 150114Z 08020G25KT 33/10 A30 RMK A01 T03260100  RH  025%=      5-min Rain = 0
KREE 150115Z 08025G33KT 33/10 A3001 RMK A01 T03250101  RH  025%=      5-min Rain = 0
KREE 150116Z 08027G34KT 32/10 A3001 RMK A01 T03240101  RH  025%=      5-min Rain = 0
KREE 150117Z 08024G30KT 32/10 A3001 RMK A01 T03220101  RH  026%=      5-min Rain = 0
KREE 150118Z 08024G29KT 32/10 A3001 RMK A01 T03200101  RH  026%=      5-min Rain = 0
KREE 150119Z 08022G28KT 32/10 A3001 RMK A01 T03190101  RH  026%=      5-min Rain = 0
KREE 150120Z 08022G30KT 32/10 A3001 RMK A01 T03180098  RH  026%=      5-min Rain = 0
KREE 150121Z 08024G30KT 32/10 A3001 RMK A01 T03160097  RH  026%=      5-min Rain = 0
KREE 150122Z 08022G29KT 32/10 A3001 RMK A01 T03150097  RH  026%=      5-min Rain = 0
KREE 150123Z 08020G26KT 31/10 A3001 RMK A01 T03140097  RH  026%=      5-min Rain = 0
KREE 150124Z 08023G29KT 31/10 A3001 RMK A01 T03130098  RH  026%=      5-min Rain = 0
KREE 150125Z 07019G24KT 31/10 A3001 RMK A01 T03120099  RH  027%=      5-min Rain = 0
KREE 150126Z 07020KT 31/10 A3001 RMK A01 T03120099  RH  027%=      5-min Rain = 0
KREE 150127Z 07021G27KT 31/10 A3001 RMK A01 T03120100  RH  027%=      5-min Rain = 0
KREE 150128Z 07023G28KT 31/10 A3001 RMK A01 T03110100  RH  027%=      5-min Rain = 0
KREE 150129Z 07022G27KT 31/10 A3001 RMK A01 T03100101  RH  027%=      5-min Rain = 0
KREE 150130Z 07022G28KT 31/10 A3001 RMK A01 T03100101  RH  028%=      5-min Rain = 0
KREE 150131Z 07025G30KT 31/10 A3002 RMK A01 T03100101  RH  028%=      5-min Rain = 0
KREE 150132Z 07023KT 31/10 A3002 RMK A01 T03090101  RH  028%=      5-min Rain = 0
KREE 150133Z 06023KT 31/10 A3002 RMK A01 T03090101  RH  028%=      5-min Rain = 0
KREE 150134Z 06026G31KT 31/10 A3002 RMK A01 T03090100  RH  027%=      5-min Rain = 0
KREE 150135Z 06022G27KT 31/10 A3002 RMK A01 T03100099  RH  027%=      5-min Rain = 0
KREE 150136Z 06018KT 31/10 A3002 RMK A01 T03100100  RH  027%=      5-min Rain = 0
KREE 150137Z 06018KT 31/10 A3003 RMK A01 T03100100  RH  027%=      5-min Rain = 0
KREE 150138Z 06015G21KT 31/10 A3003 RMK A01 T03100100  RH  027%=      5-min Rain = 0
KREE 150139Z 05012KT 31/10 A3003 RMK A01 T03100100  RH  027%=      5-min Rain = 0
KREE 150140Z 05015KT 31/10 A3003 RMK A01 T03090100  RH  027%=      5-min Rain = 0
KREE 150141Z 04013KT 31/10 A3003 RMK A01 T03090100  RH  027%=      5-min Rain = 0
KREE 150142Z 05016KT 31/10 A3004 RMK A01 T03090100  RH  027%=      5-min Rain = 0
KREE 150143Z 05016G21KT 31/10 A3004 RMK A01 T03090100  RH  027%=      5-min Rain = 0
KREE 150144Z 04014KT 31/10 A3004 RMK A01 T03090100  RH  027%=      5-min Rain = 0
KREE 150145Z 04018G23KT 31/10 A3004 RMK A01 T03090101  RH  028%=      5-min Rain = 0
KREE 150146Z 04019G24KT 31/10 A3004 RMK A01 T03080103  RH  028%=      5-min Rain = 0
KREE 150147Z 04018KT 31/10 A3004 RMK A01 T03080103  RH  028%=      5-min Rain = 0
KREE 150148Z 04017KT 31/10 A3004 RMK A01 T03070104  RH  028%=      5-min Rain = 0
KREE 150149Z 04015KT 31/10 A3004 RMK A01 T03070104  RH  029%=      5-min Rain = 0
KREE 150150Z 04018G25KT 31/10 A3004 RMK A01 T03060103  RH  029%=      5-min Rain = 0
KREE 150151Z 04018G24KT 31/10 A3005 RMK A01 T03060103  RH  028%=      5-min Rain = 0
KREE 150152Z 04016G21KT 31/10 A3004 RMK A01 T03060103  RH  028%=      5-min Rain = 0
KREE 150153Z 04017G22KT 31/10 A3005 RMK A01 T03060103  RH  028%=      5-min Rain = 0
KREE 150154Z 04018G23KT 31/10 A3005 RMK A01 T03060102  RH  028%=      5-min Rain = 0
KREE 150155Z 04018G23KT 31/10 A3005 RMK A01 T03060102  RH  028%=      5-min Rain = 0
KREE 150156Z 04019KT 31/10 A3005 RMK A01 T03060102  RH  028%=      5-min Rain = 0
KREE 150157Z 04019KT 31/10 A3005 RMK A01 T03060101  RH  028%=      5-min Rain = 0
KREE 150158Z 03014G20KT 31/10 A3005 RMK A01 T03060102  RH  028%=      5-min Rain = 0
KREE 150159Z 02013KT 31/10 A3005 RMK A01 T03050103  RH  029%=      5-min Rain = 0
KREE 150200Z 01014KT 30/10 A3005 RMK A01 T03040103  RH  029%=      5-min Rain = 0
KREE 150201Z 01015KT 30/10 A3005 RMK A01 T03030104  RH  029%=      5-min Rain = 0
KREE 150202Z 01015KT 30/10 A3005 RMK A01 T03020104  RH  029%=      5-min Rain = 0
KREE 150203Z 01015KT 30/10 A3006 RMK A01 T03010104  RH  030%=      5-min Rain = 0
KREE 150204Z 01015KT 30/10 A3006 RMK A01 T03010103  RH  029%=      5-min Rain = 0
KREE 150205Z 01017G22KT 30/10 A3006 RMK A01 T03010101  RH  029%=      5-min Rain = 0
KREE 150206Z 01016KT 30/10 A3006 RMK A01 T03010100  RH  029%=      5-min Rain = 0
KREE 150207Z 01017KT 30/10 A3006 RMK A01 T03020099  RH  028%=      5-min Rain = 0
KREE 150208Z 01015G20KT 30/10 A3006 RMK A01 T03030098  RH  028%=      5-min Rain = 0
KREE 150209Z 01017KT 30/10 A3006 RMK A01 T03030098  RH  028%=      5-min Rain = 0
KREE 150210Z 01017G22KT 30/10 A3006 RMK A01 T03040097  RH  028%=      5-min Rain = 0
KREE 150211Z 02016KT 30/10 A3006 RMK A01 T03040100  RH  028%=      5-min Rain = 0
KREE 150212Z 00018KT 30/11 A3006 RMK A01 T03030105  RH  029%=      5-min Rain = 0
KREE 150213Z 01019KT 30/11 A3006 RMK A01 T03000110  RH  031%=      5-min Rain = 0
KREE 150214Z 00017KT 30/11 A3006 RMK A01 T02970111  RH  032%=      5-min Rain = 0
KREE 150215Z 36019G28KT 30/11 A3006 RMK A01 T02960110  RH  032%=      5-min Rain = 0
KREE 150216Z 00019G26KT 30/11 A3006 RMK A01 T02960113  RH  032%=      5-min Rain = 0
KREE 150217Z 00021G28KT 30/11 A3006 RMK A01 T02950113  RH  032%=      5-min Rain = 0
KREE 150218Z 01019G25KT 30/11 A3006 RMK A01 T02950112  RH  032%=      5-min Rain = 0
KREE 150219Z 02015G20KT 30/11 A3006 RMK A01 T02950112  RH  032%=      5-min Rain = 0
KREE 150220Z 01017KT 30/11 A3006 RMK A01 T02950112  RH  032%=      5-min Rain = 0
KREE 150221Z 02016KT 29/11 A3006 RMK A01 T02940112  RH  032%=      5-min Rain = 0
KREE 150222Z 02012KT 29/11 A3006 RMK A01 T02940112  RH  032%=      5-min Rain = 0
KREE 150223Z 02014G19KT 29/11 A3006 RMK A01 T02940112  RH  032%=      5-min Rain = 0
KREE 150224Z 02015KT 29/11 A3007 RMK A01 T02930113  RH  033%=      5-min Rain = 0
KREE 150225Z 03015G20KT 29/11 A3007 RMK A01 T02930113  RH  033%=      5-min Rain = 0
KREE 150226Z 03014KT 29/11 A3007 RMK A01 T02930114  RH  033%=      5-min Rain = 0
KREE 150227Z 03014G19KT 29/11 A3007 RMK A01 T02920113  RH  033%=      5-min Rain = 0
KREE 150228Z 03016G22KT 29/11 A3007 RMK A01 T02920111  RH  033%=      5-min Rain = 0
KREE 150229Z 03018G23KT 29/11 A3007 RMK A01 T02940109  RH  032%=      5-min Rain = 0
KREE 150230Z 04018KT 30/11 A3007 RMK A01 T02960107  RH  031%=      5-min Rain = 0
KREE 150231Z 04019G24KT 30/11 A3007 RMK A01 T02980105  RH  030%=      5-min Rain = 0
KREE 150232Z 04017KT 30/10 A3007 RMK A01 T03010104  RH  030%=      5-min Rain = 0
KREE 150233Z 04021KT 30/11 A3008 RMK A01 T03010105  RH  030%=      5-min Rain = 0
KREE 150234Z 04016KT 30/11 A3008 RMK A01 T03010106  RH  030%=      5-min Rain = 0
KREE 150235Z 04016KT 30/11 A3008 RMK A01 T03010108  RH  030%=      5-min Rain = 0
KREE 150236Z 04016KT 30/11 A3007 RMK A01 T03000108  RH  031%=      5-min Rain = 0
KREE 150237Z 03017G23KT 30/11 A3007 RMK A01 T03000108  RH  031%=      5-min Rain = 0
KREE 150238Z 03019KT 30/11 A3008 RMK A01 T03000106  RH  030%=      5-min Rain = 0
KREE 150239Z 03018KT 30/11 A3008 RMK A01 T03000105  RH  030%=      5-min Rain = 0
KREE 150240Z 03015KT 30/11 A3008 RMK A01 T03010105  RH  030%=      5-min Rain = 0
KREE 150241Z 03015G20KT 30/10 A3008 RMK A01 T03010104  RH  029%=      5-min Rain = 0
KREE 150242Z 02016G22KT 30/10 A3008 RMK A01 T03010103  RH  029%=      5-min Rain = 0
KREE 150243Z 02015KT 30/10 A3008 RMK A01 T03020104  RH  029%=      5-min Rain = 0
KREE 150244Z 02018G24KT 30/11 A3008 RMK A01 T03020105  RH  029%=      5-min Rain = 0
KREE 150245Z 02014G19KT 30/11 A3008 RMK A01 T03020105  RH  030%=      5-min Rain = 0
KREE 150246Z 02016G21KT 30/11 A3008 RMK A01 T03010106  RH  030%=      5-min Rain = 0
KREE 150247Z 02015G20KT 30/11 A3008 RMK A01 T03010106  RH  030%=      5-min Rain = 0
KREE 150248Z 02016KT 30/11 A3008 RMK A01 T03000107  RH  030%=      5-min Rain = 0
KREE 150249Z 02015G22KT 30/11 A3008 RMK A01 T03000107  RH  030%=      5-min Rain = 0
KREE 150250Z 02018KT 30/11 A3008 RMK A01 T03000107  RH  030%=      5-min Rain = 0
KREE 150251Z 03016KT 30/11 A3009 RMK A01 T03000107  RH  030%=      5-min Rain = 0
KREE 150252Z 03013KT 30/11 A3009 RMK A01 T03000108  RH  031%=      5-min Rain = 0
KREE 150253Z 03013KT 30/11 A3009 RMK A01 T02990108  RH  031%=      5-min Rain = 0
KREE 150254Z 03014KT 30/11 A3009 RMK A01 T02990109  RH  031%=      5-min Rain = 0
KREE 150255Z 03012KT 30/11 A3009 RMK A01 T02990109  RH  031%=      5-min Rain = 0
KREE 150256Z 03014KT 30/11 A3009 RMK A01 T02980109  RH  031%=      5-min Rain = 0
KREE 150257Z 03014KT 30/11 A3009 RMK A01 T02980110  RH  031%=      5-min Rain = 0
KREE 150258Z 04012KT 30/11 A3009 RMK A01 T02980111  RH  032%=      5-min Rain = 0
KREE 150259Z 03012KT 30/11 A3009 RMK A01 T02970112  RH  032%=      5-min Rain = 0
KREE 150300Z 04010KT 30/11 A3009 RMK A01 T02960112  RH  032%=      5-min Rain = 0
KREE 150301Z 04009KT 30/11 A3009 RMK A01 T02960112  RH  032%=      5-min Rain = 0
KREE 150302Z 04014KT 30/11 A3009 RMK A01 T02950113  RH  032%=      5-min Rain = 0
KREE 150303Z 04012KT 30/11 A3009 RMK A01 T02950113  RH  033%=      5-min Rain = 0
KREE 150304Z 04014KT 29/11 A3009 RMK A01 T02940114  RH  033%=      5-min Rain = 0
KREE 150305Z 04013KT 29/12 A3009 RMK A01 T02940115  RH  033%=      5-min Rain = 0
KREE 150306Z 04014G19KT 29/12 A3009 RMK A01 T02930115  RH  033%=      5-min Rain = 0
KREE 150307Z 04015KT 29/12 A3009 RMK A01 T02930116  RH  033%=      5-min Rain = 0
KREE 150308Z 04013G19KT 29/12 A3009 RMK A01 T02920116  RH  034%=      5-min Rain = 0
KREE 150309Z 05013KT 29/12 A3009 RMK A01 T02920116  RH  034%=      5-min Rain = 0
KREE 150310Z 04013KT 29/12 A3009 RMK A01 T02920117  RH  034%=      5-min Rain = 0
KREE 150311Z 05011KT 29/12 A3009 RMK A01 T02910117  RH  034%=      5-min Rain = 0
KREE 150312Z 05011KT 29/12 A3009 RMK A01 T02910117  RH  034%=      5-min Rain = 0
KREE 150313Z 06010KT 29/12 A3009 RMK A01 T02910117  RH  034%=      5-min Rain = 0
KREE 150314Z 05010KT 29/12 A3009 RMK A01 T02910116  RH  034%=      5-min Rain = 0
KREE 150315Z 06009KT 29/12 A3009 RMK A01 T02910116  RH  034%=      5-min Rain = 0
KREE 150316Z 06009KT 29/12 A3009 RMK A01 T02910116  RH  034%=      5-min Rain = 0
KREE 150317Z 06009KT 29/12 A3009 RMK A01 T02900116  RH  034%=      5-min Rain = 0
KREE 150318Z 06009KT 29/12 A3009 RMK A01 T02910116  RH  034%=      5-min Rain = 0
KREE 150319Z 06009KT 29/12 A3009 RMK A01 T02910116  RH  034%=      5-min Rain = 0
KREE 150320Z 06009KT 29/12 A3009 RMK A01 T02910115  RH  034%=      5-min Rain = 0
KREE 150321Z 05009KT 29/12 A3009 RMK A01 T02910115  RH  034%=      5-min Rain = 0
KREE 150322Z 05008KT 29/12 A3009 RMK A01 T02910115  RH  034%=      5-min Rain = 0
KREE 150323Z 04008KT 29/12 A3009 RMK A01 T02910115  RH  034%=      5-min Rain = 0
KREE 150324Z 04009KT 29/12 A3009 RMK A01 T02910115  RH  034%=      5-min Rain = 0
KREE 150325Z 03008KT 29/12 A3009 RMK A01 T02900115  RH  034%=      5-min Rain = 0
KREE 150326Z 04007KT 29/12 A3009 RMK A01 T02900116  RH  034%=      5-min Rain = 0
KREE 150327Z 04007KT 29/12 A3009 RMK A01 T02900116  RH  034%=      5-min Rain = 0
KREE 150328Z 05007KT 29/12 A3009 RMK A01 T02900116  RH  034%=      5-min Rain = 0
KREE 150329Z 05007KT 29/12 A3009 RMK A01 T02890115  RH  034%=      5-min Rain = 0
KREE 150330Z 05006KT 29/12 A3009 RMK A01 T02890115  RH  034%=      5-min Rain = 0
KREE 150331Z 05006KT 29/12 A3009 RMK A01 T02890115  RH  034%=      5-min Rain = 0
KREE 150332Z 05006KT 29/12 A3009 RMK A01 T02890115  RH  034%=      5-min Rain = 0
KREE 150333Z 05006KT 29/12 A3009 RMK A01 T02890115  RH  034%=      5-min Rain = 0
KREE 150334Z 05006KT 29/12 A3009 RMK A01 T02890115  RH  034%=      5-min Rain = 0
KREE 150335Z 05006KT 29/12 A3009 RMK A01 T02890116  RH  034%=      5-min Rain = 0
KREE 150336Z 05006KT 29/12 A3009 RMK A01 T02890116  RH  034%=      5-min Rain = 0
KREE 150337Z 05006KT 29/12 A3009 RMK A01 T02890116  RH  034%=      5-min Rain = 0
KREE 150338Z 05006KT 29/12 A3009 RMK A01 T02890116  RH  034%=      5-min Rain = 0
KREE 150339Z 05005KT 29/12 A3008 RMK A01 T02880116  RH  034%=      5-min Rain = 0
KREE 150340Z 05005KT 29/12 A3008 RMK A01 T02880116  RH  034%=      5-min Rain = 0
KREE 150341Z 05005KT 29/12 A3008 RMK A01 T02880116  RH  035%=      5-min Rain = 0
KREE 150342Z 05005KT 29/12 A3008 RMK A01 T02870116  RH  035%=      5-min Rain = 0
KREE 150343Z 06005KT 29/12 A3008 RMK A01 T02870116  RH  035%=      5-min Rain = 0
KREE 150344Z 05005KT 29/12 A3008 RMK A01 T02870116  RH  035%=      5-min Rain = 0
KREE 150345Z 05005KT 29/12 A3008 RMK A01 T02860116  RH  035%=      5-min Rain = 0
KREE 150346Z 05005KT 29/12 A3008 RMK A01 T02860116  RH  035%=      5-min Rain = 0
KREE 150347Z 05006KT 29/12 A3008 RMK A01 T02860116  RH  035%=      5-min Rain = 0
KREE 150348Z 04006KT 29/12 A3008 RMK A01 T02860117  RH  035%=      5-min Rain = 0
KREE 150349Z 04007KT 29/12 A3008 RMK A01 T02860117  RH  035%=      5-min Rain = 0
KREE 150350Z 03007KT 29/12 A3008 RMK A01 T02850117  RH  035%=      5-min Rain = 0
KREE 150351Z 04007KT 29/12 A3008 RMK A01 T02850118  RH  035%=      5-min Rain = 0
KREE 150352Z 04007KT 29/12 A3008 RMK A01 T02850118  RH  036%=      5-min Rain = 0
KREE 150353Z 04008KT 29/12 A3008 RMK A01 T02850118  RH  036%=      5-min Rain = 0
KREE 150354Z 04008KT 29/12 A3008 RMK A01 T02850118  RH  036%=      5-min Rain = 0
KREE 150355Z 05008KT 29/12 A3007 RMK A01 T02850118  RH  036%=      5-min Rain = 0
KREE 150356Z 05008KT 29/12 A3007 RMK A01 T02850118  RH  036%=      5-min Rain = 0
KREE 150357Z 06007KT 29/12 A3007 RMK A01 T02850117  RH  035%=      5-min Rain = 0
KREE 150358Z 06007KT 29/12 A3007 RMK A01 T02850117  RH  035%=      5-min Rain = 0
KREE 150359Z 06007KT 29/12 A3007 RMK A01 T02850117  RH  035%=      5-min Rain = 0
KREE 150400Z 05008KT 29/12 A3007 RMK A01 T02850118  RH  035%=      5-min Rain = 0
KREE 150401Z 05008KT 29/12 A3007 RMK A01 T02850118  RH  036%=      5-min Rain = 0
KREE 150402Z 05008KT 28/12 A3007 RMK A01 T02840118  RH  036%=      5-min Rain = 0
KREE 150403Z 05008KT 28/12 A3007 RMK A01 T02840118  RH  036%=      5-min Rain = 0
KREE 150404Z 06007KT 28/12 A3007 RMK A01 T02840118  RH  036%=      5-min Rain = 0
KREE 150405Z 06007KT 28/12 A3007 RMK A01 T02840118  RH  036%=      5-min Rain = 0
KREE 150406Z 06006KT 28/12 A3006 RMK A01 T02840118  RH  036%=      5-min Rain = 0
KREE 150407Z 06006KT 28/12 A3006 RMK A01 T02830118  RH  036%=      5-min Rain = 0
KREE 150408Z 06005KT 28/12 A3006 RMK A01 T02830118  RH  036%=      5-min Rain = 0
KREE 150409Z 06005KT 28/12 A3006 RMK A01 T02830118  RH  036%=      5-min Rain = 0
KREE 150410Z 06004KT 28/12 A3006 RMK A01 T02830118  RH  036%=      5-min Rain = 0
KREE 150411Z 06005KT 28/12 A3006 RMK A01 T02830117  RH  036%=      5-min Rain = 0
KREE 150412Z 06004KT 28/12 A3006 RMK A01 T02830117  RH  036%=      5-min Rain = 0
KREE 150413Z 05004KT 28/12 A3006 RMK A01 T02830117  RH  036%=      5-min Rain = 0
KREE 150414Z 05003KT 28/12 A3006 RMK A01 T02830117  RH  036%=      5-min Rain = 0
KREE 150415Z 05003KT 28/12 A3006 RMK A01 T02830117  RH  036%=      5-min Rain = 0
KREE 150416Z 05003KT 28/12 A3006 RMK A01 T02830117  RH  036%=      5-min Rain = 0
KREE 150417Z 06002KT 28/12 A3006 RMK A01 T02830117  RH  036%=      5-min Rain = 0
KREE 150418Z 07002KT 28/12 A3006 RMK A01 T02830117  RH  036%=      5-min Rain = 0
KREE 150419Z 09001KT 28/12 A3006 RMK A01 T02830117  RH  036%=      5-min Rain = 0
KREE 150420Z 10001KT 28/12 A3006 RMK A01 T02830117  RH  036%=      5-min Rain = 0
KREE 150421Z 13002KT 28/12 A3006 RMK A01 T02830117  RH  036%=      5-min Rain = 0
KREE 150422Z 14002KT 28/12 A3006 RMK A01 T02830117  RH  036%=      5-min Rain = 0
KREE 150423Z 13002KT 28/12 A3006 RMK A01 T02820117  RH  036%=      5-min Rain = 0
KREE 150424Z 12003KT 28/12 A3006 RMK A01 T02820117  RH  036%=      5-min Rain = 0
KREE 150425Z 12003KT 28/12 A3006 RMK A01 T02820116  RH  036%=      5-min Rain = 0
KREE 150426Z 14003KT 28/12 A3006 RMK A01 T02820116  RH  036%=      5-min Rain = 0
KREE 150427Z 16005KT 28/12 A3006 RMK A01 T02820116  RH  036%=      5-min Rain = 0
KREE 150428Z 15005KT 28/12 A3006 RMK A01 T02810117  RH  036%=      5-min Rain = 0
KREE 150429Z 14004KT 28/12 A3005 RMK A01 T02810116  RH  036%=      5-min Rain = 0
KREE 150430Z 14004KT 28/12 A3005 RMK A01 T02810116  RH  036%=      5-min Rain = 0
KREE 150431Z 15004KT 28/12 A3005 RMK A01 T02810116  RH  036%=      5-min Rain = 0
KREE 150432Z 17004KT 28/12 A3005 RMK A01 T02800116  RH  036%=      5-min Rain = 0
KREE 150433Z 17004KT 28/12 A3005 RMK A01 T02800116  RH  036%=      5-min Rain = 0
KREE 150434Z 18005KT 28/12 A3005 RMK A01 T02790116  RH  036%=      5-min Rain = 0
KREE 150435Z 19006KT 28/12 A3005 RMK A01 T02790116  RH  036%=      5-min Rain = 0
KREE 150436Z 20006KT 28/12 A3005 RMK A01 T02790116  RH  036%=      5-min Rain = 0
KREE 150437Z 20006KT 28/12 A3005 RMK A01 T02800115  RH  036%=      5-min Rain = 0
KREE 150438Z 20007KT 28/12 A3005 RMK A01 T02790115  RH  036%=      5-min Rain = 0
KREE 150439Z 20007KT 28/12 A3005 RMK A01 T02790115  RH  036%=      5-min Rain = 0
KREE 150440Z 20007KT 28/12 A3004 RMK A01 T02790115  RH  036%=      5-min Rain = 0
KREE 150441Z 20006KT 28/12 A3004 RMK A01 T02800115  RH  036%=      5-min Rain = 0
KREE 150442Z 20005KT 28/12 A3004 RMK A01 T02800115  RH  036%=      5-min Rain = 0
KREE 150443Z 19005KT 28/12 A3004 RMK A01 T02800115  RH  036%=      5-min Rain = 0
KREE 150444Z 19004KT 28/12 A3004 RMK A01 T02800115  RH  036%=      5-min Rain = 0
KREE 150445Z 19003KT 28/12 A3004 RMK A01 T02800115  RH  036%=      5-min Rain = 0
KREE 150446Z 19004KT 28/12 A3004 RMK A01 T02810115  RH  036%=      5-min Rain = 0
KREE 150447Z 18003KT 28/12 A3004 RMK A01 T02800115  RH  036%=      5-min Rain = 0
KREE 150448Z 18003KT 28/12 A3004 RMK A01 T02810115  RH  036%=      5-min Rain = 0
KREE 150449Z 17002KT 28/12 A3004 RMK A01 T02810115  RH  036%=      5-min Rain = 0
KREE 150450Z 12002KT 28/12 A3004 RMK A01 T02810115  RH  036%=      5-min Rain = 0
KREE 150451Z 10005KT 28/11 A3004 RMK A01 T02810114  RH  035%=      5-min Rain = 0
KREE 150452Z 10006KT 28/11 A3004 RMK A01 T02830106  RH  033%=      5-min Rain = 0
KREE 150453Z 09006KT 29/11 A3004 RMK A01 T02870105  RH  032%=      5-min Rain = 0
KREE 150454Z 09008KT 29/11 A3004 RMK A01 T02910106  RH  032%=      5-min Rain = 0
KREE 150455Z 09008KT 29/11 A3004 RMK A01 T02930107  RH  032%=      5-min Rain = 0
KREE 150456Z 09008KT 29/11 A3004 RMK A01 T02940108  RH  032%=      5-min Rain = 0
KREE 150457Z 10007KT 29/11 A3004 RMK A01 T02940108  RH  032%=      5-min Rain = 0
KREE 150458Z 10008KT 29/11 A3004 RMK A01 T02940110  RH  032%=      5-min Rain = 0
KREE 150459Z 10008KT 29/11 A3004 RMK A01 T02930110  RH  032%=      5-min Rain = 0

Page generated in 0.1193 seconds.